<?xml version="1.0" encoding="UTF-8" standalone="no" ?>
<gpx xmlns="http://www.topografix.com/GPX/1/1" xmlns:xsi="http://www.w3.org/2001/XMLSchema-instance" xsi:schemaLocation="http://www.topografix.com/GPX/1/1 http://www.topografix.com/GPX/1/1/gpx.xsd" version="1.1" creator="VisuGPX - https://www.visugpx.com">
  <metadata>
    <name>De Lacapelle vers Cuzorn</name>
    <desc><![CDATA[De Lacapelle vers Cuzorn]]></desc>
  </metadata>
  <trk>
    <name><![CDATA[11-JAN-15 11:43:52]]></name>
    <trkseg>
      <trkpt lat="44.6003" lon="0.89508">
        <ele>173.17</ele>
        <time>2015-01-11T08:06:35Z</time>
      </trkpt>
      <trkpt lat="44.60031" lon="0.89506">
        <ele>171.73</ele>
        <time>2015-01-11T08:06:59Z</time>
      </trkpt>
      <trkpt lat="44.6003" lon="0.89505">
        <ele>172.21</ele>
        <time>2015-01-11T08:07:17Z</time>
      </trkpt>
      <trkpt lat="44.6003" lon="0.89501">
        <ele>172.21</ele>
        <time>2015-01-11T08:07:36Z</time>
      </trkpt>
      <trkpt lat="44.60052" lon="0.89492">
        <ele>173.17</ele>
        <time>2015-01-11T08:07:48Z</time>
      </trkpt>
      <trkpt lat="44.60048" lon="0.8948">
        <ele>172.69</ele>
        <time>2015-01-11T08:07:53Z</time>
      </trkpt>
      <trkpt lat="44.60008" lon="0.8947">
        <ele>174.14</ele>
        <time>2015-01-11T08:08:08Z</time>
      </trkpt>
      <trkpt lat="44.59971" lon="0.89457">
        <ele>177.02</ele>
        <time>2015-01-11T08:08:21Z</time>
      </trkpt>
      <trkpt lat="44.59934" lon="0.89416">
        <ele>177.5</ele>
        <time>2015-01-11T08:08:35Z</time>
      </trkpt>
      <trkpt lat="44.59885" lon="0.89356">
        <ele>173.17</ele>
        <time>2015-01-11T08:08:48Z</time>
      </trkpt>
      <trkpt lat="44.59834" lon="0.89298">
        <ele>169.33</ele>
        <time>2015-01-11T08:09:00Z</time>
      </trkpt>
      <trkpt lat="44.59781" lon="0.89233">
        <ele>166.45</ele>
        <time>2015-01-11T08:09:15Z</time>
      </trkpt>
      <trkpt lat="44.59759" lon="0.89197">
        <ele>166.93</ele>
        <time>2015-01-11T08:09:22Z</time>
      </trkpt>
      <trkpt lat="44.59695" lon="0.89141">
        <ele>169.81</ele>
        <time>2015-01-11T08:09:39Z</time>
      </trkpt>
      <trkpt lat="44.59666" lon="0.89117">
        <ele>172.69</ele>
        <time>2015-01-11T08:09:51Z</time>
      </trkpt>
      <trkpt lat="44.59636" lon="0.89079">
        <ele>177.5</ele>
        <time>2015-01-11T08:10:07Z</time>
      </trkpt>
      <trkpt lat="44.59624" lon="0.89049">
        <ele>179.9</ele>
        <time>2015-01-11T08:10:19Z</time>
      </trkpt>
      <trkpt lat="44.59601" lon="0.89002">
        <ele>180.87</ele>
        <time>2015-01-11T08:10:34Z</time>
      </trkpt>
      <trkpt lat="44.5957" lon="0.8894">
        <ele>179.42</ele>
        <time>2015-01-11T08:10:50Z</time>
      </trkpt>
      <trkpt lat="44.59561" lon="0.88924">
        <ele>178.46</ele>
        <time>2015-01-11T08:10:54Z</time>
      </trkpt>
      <trkpt lat="44.59519" lon="0.88857">
        <ele>171.25</ele>
        <time>2015-01-11T08:11:07Z</time>
      </trkpt>
      <trkpt lat="44.5951" lon="0.88842">
        <ele>169.81</ele>
        <time>2015-01-11T08:11:10Z</time>
      </trkpt>
      <trkpt lat="44.59483" lon="0.88806">
        <ele>164.52</ele>
        <time>2015-01-11T08:11:16Z</time>
      </trkpt>
      <trkpt lat="44.59471" lon="0.88786">
        <ele>161.64</ele>
        <time>2015-01-11T08:11:19Z</time>
      </trkpt>
      <trkpt lat="44.59455" lon="0.88773">
        <ele>160.2</ele>
        <time>2015-01-11T08:11:23Z</time>
      </trkpt>
      <trkpt lat="44.5943" lon="0.88745">
        <ele>161.64</ele>
        <time>2015-01-11T08:11:33Z</time>
      </trkpt>
      <trkpt lat="44.59411" lon="0.88708">
        <ele>165.48</ele>
        <time>2015-01-11T08:11:44Z</time>
      </trkpt>
      <trkpt lat="44.59384" lon="0.88665">
        <ele>170.29</ele>
        <time>2015-01-11T08:11:58Z</time>
      </trkpt>
      <trkpt lat="44.59366" lon="0.88624">
        <ele>174.14</ele>
        <time>2015-01-11T08:12:10Z</time>
      </trkpt>
      <trkpt lat="44.59361" lon="0.88609">
        <ele>172.69</ele>
        <time>2015-01-11T08:12:13Z</time>
      </trkpt>
      <trkpt lat="44.59334" lon="0.88564">
        <ele>167.41</ele>
        <time>2015-01-11T08:12:24Z</time>
      </trkpt>
      <trkpt lat="44.59329" lon="0.88533">
        <ele>165.96</ele>
        <time>2015-01-11T08:12:35Z</time>
      </trkpt>
      <trkpt lat="44.59326" lon="0.88476">
        <ele>161.64</ele>
        <time>2015-01-11T08:12:45Z</time>
      </trkpt>
      <trkpt lat="44.59311" lon="0.88384">
        <ele>158.75</ele>
        <time>2015-01-11T08:12:57Z</time>
      </trkpt>
      <trkpt lat="44.59302" lon="0.88364">
        <ele>158.27</ele>
        <time>2015-01-11T08:13:01Z</time>
      </trkpt>
      <trkpt lat="44.59291" lon="0.88356">
        <ele>157.79</ele>
        <time>2015-01-11T08:13:04Z</time>
      </trkpt>
      <trkpt lat="44.5924" lon="0.88309">
        <ele>154.91</ele>
        <time>2015-01-11T08:13:20Z</time>
      </trkpt>
      <trkpt lat="44.592" lon="0.88297">
        <ele>155.87</ele>
        <time>2015-01-11T08:13:33Z</time>
      </trkpt>
      <trkpt lat="44.59154" lon="0.88292">
        <ele>157.31</ele>
        <time>2015-01-11T08:13:46Z</time>
      </trkpt>
      <trkpt lat="44.5912" lon="0.88285">
        <ele>154.91</ele>
        <time>2015-01-11T08:13:53Z</time>
      </trkpt>
      <trkpt lat="44.59057" lon="0.88258">
        <ele>156.83</ele>
        <time>2015-01-11T08:14:08Z</time>
      </trkpt>
      <trkpt lat="44.59027" lon="0.88233">
        <ele>157.79</ele>
        <time>2015-01-11T08:14:21Z</time>
      </trkpt>
      <trkpt lat="44.5901" lon="0.88194">
        <ele>161.16</ele>
        <time>2015-01-11T08:14:34Z</time>
      </trkpt>
      <trkpt lat="44.58986" lon="0.88174">
        <ele>162.6</ele>
        <time>2015-01-11T08:14:47Z</time>
      </trkpt>
      <trkpt lat="44.58983" lon="0.88172">
        <ele>162.12</ele>
        <time>2015-01-11T08:15:02Z</time>
      </trkpt>
      <trkpt lat="44.58982" lon="0.88172">
        <ele>162.6</ele>
        <time>2015-01-11T08:15:19Z</time>
      </trkpt>
      <trkpt lat="44.58962" lon="0.88149">
        <ele>159.24</ele>
        <time>2015-01-11T08:15:27Z</time>
      </trkpt>
      <trkpt lat="44.58909" lon="0.88075">
        <ele>149.14</ele>
        <time>2015-01-11T08:15:37Z</time>
      </trkpt>
      <trkpt lat="44.58888" lon="0.88069">
        <ele>146.74</ele>
        <time>2015-01-11T08:15:41Z</time>
      </trkpt>
      <trkpt lat="44.58856" lon="0.88098">
        <ele>144.34</ele>
        <time>2015-01-11T08:15:47Z</time>
      </trkpt>
      <trkpt lat="44.58839" lon="0.88101">
        <ele>143.85</ele>
        <time>2015-01-11T08:15:50Z</time>
      </trkpt>
      <trkpt lat="44.58799" lon="0.8809">
        <ele>143.85</ele>
        <time>2015-01-11T08:16:00Z</time>
      </trkpt>
      <trkpt lat="44.58762" lon="0.88081">
        <ele>143.85</ele>
        <time>2015-01-11T08:16:11Z</time>
      </trkpt>
      <trkpt lat="44.58735" lon="0.88097">
        <ele>146.74</ele>
        <time>2015-01-11T08:16:20Z</time>
      </trkpt>
      <trkpt lat="44.58703" lon="0.88107">
        <ele>150.1</ele>
        <time>2015-01-11T08:16:31Z</time>
      </trkpt>
      <trkpt lat="44.58669" lon="0.88112">
        <ele>154.91</ele>
        <time>2015-01-11T08:16:42Z</time>
      </trkpt>
      <trkpt lat="44.58633" lon="0.88101">
        <ele>160.68</ele>
        <time>2015-01-11T08:16:54Z</time>
      </trkpt>
      <trkpt lat="44.58599" lon="0.88081">
        <ele>165.48</ele>
        <time>2015-01-11T08:17:07Z</time>
      </trkpt>
      <trkpt lat="44.58566" lon="0.88077">
        <ele>163.08</ele>
        <time>2015-01-11T08:17:19Z</time>
      </trkpt>
      <trkpt lat="44.58545" lon="0.88109">
        <ele>161.16</ele>
        <time>2015-01-11T08:17:28Z</time>
      </trkpt>
      <trkpt lat="44.58496" lon="0.88129">
        <ele>161.16</ele>
        <time>2015-01-11T08:17:41Z</time>
      </trkpt>
      <trkpt lat="44.58468" lon="0.88137">
        <ele>165</ele>
        <time>2015-01-11T08:17:52Z</time>
      </trkpt>
      <trkpt lat="44.58428" lon="0.88158">
        <ele>167.41</ele>
        <time>2015-01-11T08:18:05Z</time>
      </trkpt>
      <trkpt lat="44.58388" lon="0.88172">
        <ele>169.33</ele>
        <time>2015-01-11T08:18:19Z</time>
      </trkpt>
      <trkpt lat="44.58358" lon="0.88187">
        <ele>172.21</ele>
        <time>2015-01-11T08:18:33Z</time>
      </trkpt>
      <trkpt lat="44.58334" lon="0.88199">
        <ele>174.14</ele>
        <time>2015-01-11T08:18:45Z</time>
      </trkpt>
      <trkpt lat="44.58312" lon="0.8821">
        <ele>177.5</ele>
        <time>2015-01-11T08:18:58Z</time>
      </trkpt>
      <trkpt lat="44.58292" lon="0.88213">
        <ele>180.38</ele>
        <time>2015-01-11T08:19:10Z</time>
      </trkpt>
      <trkpt lat="44.58273" lon="0.88215">
        <ele>184.23</ele>
        <time>2015-01-11T08:19:22Z</time>
      </trkpt>
      <trkpt lat="44.58265" lon="0.88216">
        <ele>185.19</ele>
        <time>2015-01-11T08:19:27Z</time>
      </trkpt>
      <trkpt lat="44.5826" lon="0.88218">
        <ele>186.15</ele>
        <time>2015-01-11T08:19:31Z</time>
      </trkpt>
      <trkpt lat="44.58253" lon="0.88219">
        <ele>187.11</ele>
        <time>2015-01-11T08:19:36Z</time>
      </trkpt>
      <trkpt lat="44.58246" lon="0.88222">
        <ele>188.56</ele>
        <time>2015-01-11T08:19:41Z</time>
      </trkpt>
      <trkpt lat="44.58223" lon="0.88235">
        <ele>192.4</ele>
        <time>2015-01-11T08:19:57Z</time>
      </trkpt>
      <trkpt lat="44.58217" lon="0.88238">
        <ele>193.36</ele>
        <time>2015-01-11T08:20:01Z</time>
      </trkpt>
      <trkpt lat="44.5819" lon="0.88255">
        <ele>192.88</ele>
        <time>2015-01-11T08:20:17Z</time>
      </trkpt>
      <trkpt lat="44.58176" lon="0.88252">
        <ele>191.44</ele>
        <time>2015-01-11T08:20:22Z</time>
      </trkpt>
      <trkpt lat="44.58166" lon="0.88261">
        <ele>189.52</ele>
        <time>2015-01-11T08:20:26Z</time>
      </trkpt>
      <trkpt lat="44.58137" lon="0.88298">
        <ele>190</ele>
        <time>2015-01-11T08:20:39Z</time>
      </trkpt>
      <trkpt lat="44.58108" lon="0.88322">
        <ele>194.32</ele>
        <time>2015-01-11T08:20:51Z</time>
      </trkpt>
      <trkpt lat="44.5808" lon="0.88338">
        <ele>197.21</ele>
        <time>2015-01-11T08:21:04Z</time>
      </trkpt>
      <trkpt lat="44.5804" lon="0.88362">
        <ele>201.05</ele>
        <time>2015-01-11T08:21:21Z</time>
      </trkpt>
      <trkpt lat="44.57995" lon="0.88386">
        <ele>202.01</ele>
        <time>2015-01-11T08:21:40Z</time>
      </trkpt>
      <trkpt lat="44.57955" lon="0.88409">
        <ele>201.05</ele>
        <time>2015-01-11T08:21:56Z</time>
      </trkpt>
      <trkpt lat="44.57937" lon="0.88415">
        <ele>201.53</ele>
        <time>2015-01-11T08:22:09Z</time>
      </trkpt>
      <trkpt lat="44.57937" lon="0.88416">
        <ele>202.49</ele>
        <time>2015-01-11T08:22:33Z</time>
      </trkpt>
      <trkpt lat="44.57936" lon="0.88413">
        <ele>202.01</ele>
        <time>2015-01-11T08:23:03Z</time>
      </trkpt>
      <trkpt lat="44.57936" lon="0.88416">
        <ele>202.01</ele>
        <time>2015-01-11T08:23:05Z</time>
      </trkpt>
      <trkpt lat="44.57911" lon="0.88442">
        <ele>203.94</ele>
        <time>2015-01-11T08:23:18Z</time>
      </trkpt>
      <trkpt lat="44.57868" lon="0.88473">
        <ele>204.42</ele>
        <time>2015-01-11T08:23:33Z</time>
      </trkpt>
      <trkpt lat="44.57821" lon="0.88496">
        <ele>206.34</ele>
        <time>2015-01-11T08:23:48Z</time>
      </trkpt>
      <trkpt lat="44.57774" lon="0.88514">
        <ele>209.22</ele>
        <time>2015-01-11T08:24:03Z</time>
      </trkpt>
      <trkpt lat="44.57723" lon="0.8854">
        <ele>208.26</ele>
        <time>2015-01-11T08:24:15Z</time>
      </trkpt>
      <trkpt lat="44.5765" lon="0.88549">
        <ele>206.82</ele>
        <time>2015-01-11T08:24:27Z</time>
      </trkpt>
      <trkpt lat="44.57582" lon="0.88554">
        <ele>205.38</ele>
        <time>2015-01-11T08:24:40Z</time>
      </trkpt>
      <trkpt lat="44.57569" lon="0.88554">
        <ele>205.38</ele>
        <time>2015-01-11T08:24:43Z</time>
      </trkpt>
      <trkpt lat="44.57548" lon="0.88553">
        <ele>206.34</ele>
        <time>2015-01-11T08:24:48Z</time>
      </trkpt>
      <trkpt lat="44.57512" lon="0.88551">
        <ele>205.86</ele>
        <time>2015-01-11T08:24:56Z</time>
      </trkpt>
      <trkpt lat="44.57478" lon="0.88563">
        <ele>204.42</ele>
        <time>2015-01-11T08:25:02Z</time>
      </trkpt>
      <trkpt lat="44.57407" lon="0.88616">
        <ele>201.53</ele>
        <time>2015-01-11T08:25:16Z</time>
      </trkpt>
      <trkpt lat="44.57332" lon="0.88652">
        <ele>193.36</ele>
        <time>2015-01-11T08:25:27Z</time>
      </trkpt>
      <trkpt lat="44.57245" lon="0.88685">
        <ele>185.67</ele>
        <time>2015-01-11T08:25:38Z</time>
      </trkpt>
      <trkpt lat="44.5722" lon="0.88719">
        <ele>184.71</ele>
        <time>2015-01-11T08:25:43Z</time>
      </trkpt>
      <trkpt lat="44.57207" lon="0.88752">
        <ele>184.71</ele>
        <time>2015-01-11T08:25:47Z</time>
      </trkpt>
      <trkpt lat="44.57172" lon="0.88797">
        <ele>184.23</ele>
        <time>2015-01-11T08:25:55Z</time>
      </trkpt>
      <trkpt lat="44.5716" lon="0.8881">
        <ele>184.23</ele>
        <time>2015-01-11T08:25:58Z</time>
      </trkpt>
      <trkpt lat="44.57133" lon="0.88852">
        <ele>183.27</ele>
        <time>2015-01-11T08:26:05Z</time>
      </trkpt>
      <trkpt lat="44.57108" lon="0.88889">
        <ele>181.35</ele>
        <time>2015-01-11T08:26:11Z</time>
      </trkpt>
      <trkpt lat="44.57063" lon="0.88978">
        <ele>177.02</ele>
        <time>2015-01-11T08:26:23Z</time>
      </trkpt>
      <trkpt lat="44.5704" lon="0.89011">
        <ele>174.14</ele>
        <time>2015-01-11T08:26:29Z</time>
      </trkpt>
      <trkpt lat="44.57018" lon="0.8904">
        <ele>173.17</ele>
        <time>2015-01-11T08:26:34Z</time>
      </trkpt>
      <trkpt lat="44.56971" lon="0.89083">
        <ele>170.29</ele>
        <time>2015-01-11T08:26:44Z</time>
      </trkpt>
      <trkpt lat="44.56969" lon="0.89098">
        <ele>170.29</ele>
        <time>2015-01-11T08:26:48Z</time>
      </trkpt>
      <trkpt lat="44.56995" lon="0.89152">
        <ele>170.77</ele>
        <time>2015-01-11T08:27:05Z</time>
      </trkpt>
      <trkpt lat="44.56998" lon="0.89193">
        <ele>171.25</ele>
        <time>2015-01-11T08:27:14Z</time>
      </trkpt>
      <trkpt lat="44.56951" lon="0.89232">
        <ele>171.73</ele>
        <time>2015-01-11T08:27:27Z</time>
      </trkpt>
      <trkpt lat="44.56891" lon="0.89268">
        <ele>174.62</ele>
        <time>2015-01-11T08:27:43Z</time>
      </trkpt>
      <trkpt lat="44.5687" lon="0.89286">
        <ele>176.54</ele>
        <time>2015-01-11T08:27:51Z</time>
      </trkpt>
      <trkpt lat="44.5684" lon="0.8929">
        <ele>175.1</ele>
        <time>2015-01-11T08:27:57Z</time>
      </trkpt>
      <trkpt lat="44.56818" lon="0.89288">
        <ele>175.58</ele>
        <time>2015-01-11T08:28:01Z</time>
      </trkpt>
      <trkpt lat="44.56767" lon="0.89299">
        <ele>176.06</ele>
        <time>2015-01-11T08:28:12Z</time>
      </trkpt>
      <trkpt lat="44.56758" lon="0.89304">
        <ele>176.06</ele>
        <time>2015-01-11T08:28:14Z</time>
      </trkpt>
      <trkpt lat="44.56745" lon="0.89322">
        <ele>175.58</ele>
        <time>2015-01-11T08:28:18Z</time>
      </trkpt>
      <trkpt lat="44.56711" lon="0.89353">
        <ele>174.62</ele>
        <time>2015-01-11T08:28:27Z</time>
      </trkpt>
      <trkpt lat="44.56668" lon="0.89362">
        <ele>175.58</ele>
        <time>2015-01-11T08:28:37Z</time>
      </trkpt>
      <trkpt lat="44.56617" lon="0.89379">
        <ele>176.06</ele>
        <time>2015-01-11T08:28:48Z</time>
      </trkpt>
      <trkpt lat="44.56595" lon="0.89392">
        <ele>174.62</ele>
        <time>2015-01-11T08:28:53Z</time>
      </trkpt>
      <trkpt lat="44.56575" lon="0.89394">
        <ele>173.66</ele>
        <time>2015-01-11T08:28:57Z</time>
      </trkpt>
      <trkpt lat="44.56536" lon="0.89386">
        <ele>173.66</ele>
        <time>2015-01-11T08:29:07Z</time>
      </trkpt>
      <trkpt lat="44.56522" lon="0.89382">
        <ele>174.14</ele>
        <time>2015-01-11T08:29:11Z</time>
      </trkpt>
      <trkpt lat="44.56472" lon="0.89412">
        <ele>174.62</ele>
        <time>2015-01-11T08:29:24Z</time>
      </trkpt>
      <trkpt lat="44.56466" lon="0.89415">
        <ele>174.14</ele>
        <time>2015-01-11T08:29:25Z</time>
      </trkpt>
      <trkpt lat="44.56437" lon="0.89422">
        <ele>171.73</ele>
        <time>2015-01-11T08:29:30Z</time>
      </trkpt>
      <trkpt lat="44.56427" lon="0.8942">
        <ele>171.73</ele>
        <time>2015-01-11T08:29:32Z</time>
      </trkpt>
      <trkpt lat="44.5639" lon="0.89435">
        <ele>175.58</ele>
        <time>2015-01-11T08:29:42Z</time>
      </trkpt>
      <trkpt lat="44.56363" lon="0.89452">
        <ele>179.42</ele>
        <time>2015-01-11T08:29:52Z</time>
      </trkpt>
      <trkpt lat="44.56326" lon="0.89462">
        <ele>182.79</ele>
        <time>2015-01-11T08:30:05Z</time>
      </trkpt>
      <trkpt lat="44.5632" lon="0.89464">
        <ele>182.79</ele>
        <time>2015-01-11T08:30:07Z</time>
      </trkpt>
      <trkpt lat="44.56303" lon="0.89482">
        <ele>183.27</ele>
        <time>2015-01-11T08:30:17Z</time>
      </trkpt>
      <trkpt lat="44.56301" lon="0.89481">
        <ele>182.31</ele>
        <time>2015-01-11T08:30:42Z</time>
      </trkpt>
      <trkpt lat="44.56301" lon="0.89481">
        <ele>181.83</ele>
        <time>2015-01-11T08:31:06Z</time>
      </trkpt>
      <trkpt lat="44.56289" lon="0.89501">
        <ele>182.31</ele>
        <time>2015-01-11T08:31:15Z</time>
      </trkpt>
      <trkpt lat="44.56282" lon="0.89514">
        <ele>181.83</ele>
        <time>2015-01-11T08:31:18Z</time>
      </trkpt>
      <trkpt lat="44.56243" lon="0.896">
        <ele>180.38</ele>
        <time>2015-01-11T08:31:34Z</time>
      </trkpt>
      <trkpt lat="44.56239" lon="0.89624">
        <ele>180.38</ele>
        <time>2015-01-11T08:31:38Z</time>
      </trkpt>
      <trkpt lat="44.56247" lon="0.89684">
        <ele>179.9</ele>
        <time>2015-01-11T08:31:48Z</time>
      </trkpt>
      <trkpt lat="44.56241" lon="0.89744">
        <ele>180.38</ele>
        <time>2015-01-11T08:31:59Z</time>
      </trkpt>
      <trkpt lat="44.5623" lon="0.89788">
        <ele>179.42</ele>
        <time>2015-01-11T08:32:11Z</time>
      </trkpt>
      <trkpt lat="44.56219" lon="0.89813">
        <ele>184.71</ele>
        <time>2015-01-11T08:32:25Z</time>
      </trkpt>
      <trkpt lat="44.56204" lon="0.89845">
        <ele>191.44</ele>
        <time>2015-01-11T08:32:39Z</time>
      </trkpt>
      <trkpt lat="44.56202" lon="0.8985">
        <ele>192.4</ele>
        <time>2015-01-11T08:32:41Z</time>
      </trkpt>
      <trkpt lat="44.5619" lon="0.89872">
        <ele>195.77</ele>
        <time>2015-01-11T08:32:51Z</time>
      </trkpt>
      <trkpt lat="44.56181" lon="0.89891">
        <ele>198.17</ele>
        <time>2015-01-11T08:33:00Z</time>
      </trkpt>
      <trkpt lat="44.56159" lon="0.89931">
        <ele>198.65</ele>
        <time>2015-01-11T08:33:16Z</time>
      </trkpt>
      <trkpt lat="44.56144" lon="0.89965">
        <ele>197.69</ele>
        <time>2015-01-11T08:33:30Z</time>
      </trkpt>
      <trkpt lat="44.56132" lon="0.89992">
        <ele>197.69</ele>
        <time>2015-01-11T08:33:41Z</time>
      </trkpt>
      <trkpt lat="44.56137" lon="0.90026">
        <ele>199.61</ele>
        <time>2015-01-11T08:33:52Z</time>
      </trkpt>
      <trkpt lat="44.56148" lon="0.90068">
        <ele>200.57</ele>
        <time>2015-01-11T08:34:06Z</time>
      </trkpt>
      <trkpt lat="44.5616" lon="0.90097">
        <ele>204.42</ele>
        <time>2015-01-11T08:34:18Z</time>
      </trkpt>
      <trkpt lat="44.56169" lon="0.9014">
        <ele>209.22</ele>
        <time>2015-01-11T08:34:33Z</time>
      </trkpt>
      <trkpt lat="44.56175" lon="0.90166">
        <ele>209.22</ele>
        <time>2015-01-11T08:34:44Z</time>
      </trkpt>
      <trkpt lat="44.56174" lon="0.90172">
        <ele>209.22</ele>
        <time>2015-01-11T08:35:01Z</time>
      </trkpt>
      <trkpt lat="44.56176" lon="0.9018">
        <ele>205.86</ele>
        <time>2015-01-11T08:35:28Z</time>
      </trkpt>
      <trkpt lat="44.56184" lon="0.90202">
        <ele>207.78</ele>
        <time>2015-01-11T08:35:40Z</time>
      </trkpt>
      <trkpt lat="44.56194" lon="0.90239">
        <ele>208.26</ele>
        <time>2015-01-11T08:35:51Z</time>
      </trkpt>
      <trkpt lat="44.56216" lon="0.90289">
        <ele>209.7</ele>
        <time>2015-01-11T08:36:04Z</time>
      </trkpt>
      <trkpt lat="44.56233" lon="0.90343">
        <ele>211.15</ele>
        <time>2015-01-11T08:36:16Z</time>
      </trkpt>
      <trkpt lat="44.56227" lon="0.9039">
        <ele>210.67</ele>
        <time>2015-01-11T08:36:26Z</time>
      </trkpt>
      <trkpt lat="44.56203" lon="0.90447">
        <ele>216.43</ele>
        <time>2015-01-11T08:36:41Z</time>
      </trkpt>
      <trkpt lat="44.5618" lon="0.90502">
        <ele>217.4</ele>
        <time>2015-01-11T08:36:57Z</time>
      </trkpt>
      <trkpt lat="44.56166" lon="0.90552">
        <ele>214.99</ele>
        <time>2015-01-11T08:37:09Z</time>
      </trkpt>
      <trkpt lat="44.56154" lon="0.90591">
        <ele>213.55</ele>
        <time>2015-01-11T08:37:20Z</time>
      </trkpt>
      <trkpt lat="44.56136" lon="0.90672">
        <ele>212.11</ele>
        <time>2015-01-11T08:37:33Z</time>
      </trkpt>
      <trkpt lat="44.56106" lon="0.90736">
        <ele>210.67</ele>
        <time>2015-01-11T08:37:47Z</time>
      </trkpt>
      <trkpt lat="44.56081" lon="0.90806">
        <ele>209.22</ele>
        <time>2015-01-11T08:38:01Z</time>
      </trkpt>
      <trkpt lat="44.5608" lon="0.90835">
        <ele>207.78</ele>
        <time>2015-01-11T08:38:07Z</time>
      </trkpt>
      <trkpt lat="44.56092" lon="0.90854">
        <ele>205.38</ele>
        <time>2015-01-11T08:38:13Z</time>
      </trkpt>
      <trkpt lat="44.56109" lon="0.90946">
        <ele>201.05</ele>
        <time>2015-01-11T08:38:24Z</time>
      </trkpt>
      <trkpt lat="44.5612" lon="0.90979">
        <ele>199.13</ele>
        <time>2015-01-11T08:38:27Z</time>
      </trkpt>
      <trkpt lat="44.56133" lon="0.91007">
        <ele>196.73</ele>
        <time>2015-01-11T08:38:30Z</time>
      </trkpt>
      <trkpt lat="44.56146" lon="0.91036">
        <ele>193.84</ele>
        <time>2015-01-11T08:38:33Z</time>
      </trkpt>
      <trkpt lat="44.5616" lon="0.91061">
        <ele>191.44</ele>
        <time>2015-01-11T08:38:37Z</time>
      </trkpt>
      <trkpt lat="44.56167" lon="0.91079">
        <ele>190.96</ele>
        <time>2015-01-11T08:38:40Z</time>
      </trkpt>
      <trkpt lat="44.56173" lon="0.91097">
        <ele>191.44</ele>
        <time>2015-01-11T08:38:43Z</time>
      </trkpt>
      <trkpt lat="44.5619" lon="0.91177">
        <ele>192.4</ele>
        <time>2015-01-11T08:38:57Z</time>
      </trkpt>
      <trkpt lat="44.56211" lon="0.91225">
        <ele>192.88</ele>
        <time>2015-01-11T08:39:09Z</time>
      </trkpt>
      <trkpt lat="44.56227" lon="0.91266">
        <ele>198.65</ele>
        <time>2015-01-11T08:39:22Z</time>
      </trkpt>
      <trkpt lat="44.56238" lon="0.91317">
        <ele>202.98</ele>
        <time>2015-01-11T08:39:37Z</time>
      </trkpt>
      <trkpt lat="44.56249" lon="0.91372">
        <ele>209.22</ele>
        <time>2015-01-11T08:39:52Z</time>
      </trkpt>
      <trkpt lat="44.5625" lon="0.91412">
        <ele>210.67</ele>
        <time>2015-01-11T08:40:05Z</time>
      </trkpt>
      <trkpt lat="44.5624" lon="0.9145">
        <ele>215.95</ele>
        <time>2015-01-11T08:40:18Z</time>
      </trkpt>
      <trkpt lat="44.56225" lon="0.91501">
        <ele>218.84</ele>
        <time>2015-01-11T08:40:34Z</time>
      </trkpt>
      <trkpt lat="44.56215" lon="0.91563">
        <ele>218.36</ele>
        <time>2015-01-11T08:40:50Z</time>
      </trkpt>
      <trkpt lat="44.56227" lon="0.91597">
        <ele>218.84</ele>
        <time>2015-01-11T08:41:01Z</time>
      </trkpt>
      <trkpt lat="44.56278" lon="0.91609">
        <ele>221.72</ele>
        <time>2015-01-11T08:41:19Z</time>
      </trkpt>
      <trkpt lat="44.56323" lon="0.91622">
        <ele>221.72</ele>
        <time>2015-01-11T08:41:34Z</time>
      </trkpt>
      <trkpt lat="44.56365" lon="0.9165">
        <ele>218.36</ele>
        <time>2015-01-11T08:41:46Z</time>
      </trkpt>
      <trkpt lat="44.56381" lon="0.91662">
        <ele>217.4</ele>
        <time>2015-01-11T08:41:50Z</time>
      </trkpt>
      <trkpt lat="44.5639" lon="0.91684">
        <ele>216.43</ele>
        <time>2015-01-11T08:41:54Z</time>
      </trkpt>
      <trkpt lat="44.56397" lon="0.9171">
        <ele>215.47</ele>
        <time>2015-01-11T08:41:58Z</time>
      </trkpt>
      <trkpt lat="44.56437" lon="0.91772">
        <ele>215.95</ele>
        <time>2015-01-11T08:42:14Z</time>
      </trkpt>
      <trkpt lat="44.56445" lon="0.91826">
        <ele>215.95</ele>
        <time>2015-01-11T08:42:27Z</time>
      </trkpt>
      <trkpt lat="44.56442" lon="0.91873">
        <ele>213.55</ele>
        <time>2015-01-11T08:42:39Z</time>
      </trkpt>
      <trkpt lat="44.56413" lon="0.91903">
        <ele>215.95</ele>
        <time>2015-01-11T08:42:51Z</time>
      </trkpt>
      <trkpt lat="44.56362" lon="0.91932">
        <ele>216.43</ele>
        <time>2015-01-11T08:43:07Z</time>
      </trkpt>
      <trkpt lat="44.56324" lon="0.91957">
        <ele>220.28</ele>
        <time>2015-01-11T08:43:19Z</time>
      </trkpt>
      <trkpt lat="44.56289" lon="0.91975">
        <ele>226.53</ele>
        <time>2015-01-11T08:43:30Z</time>
      </trkpt>
      <trkpt lat="44.56244" lon="0.91984">
        <ele>228.45</ele>
        <time>2015-01-11T08:43:42Z</time>
      </trkpt>
      <trkpt lat="44.562" lon="0.9199">
        <ele>231.33</ele>
        <time>2015-01-11T08:43:54Z</time>
      </trkpt>
      <trkpt lat="44.56149" lon="0.92">
        <ele>233.74</ele>
        <time>2015-01-11T08:44:07Z</time>
      </trkpt>
      <trkpt lat="44.56088" lon="0.92028">
        <ele>227.01</ele>
        <time>2015-01-11T08:44:17Z</time>
      </trkpt>
      <trkpt lat="44.5607" lon="0.92053">
        <ele>224.61</ele>
        <time>2015-01-11T08:44:21Z</time>
      </trkpt>
      <trkpt lat="44.56066" lon="0.92082">
        <ele>222.68</ele>
        <time>2015-01-11T08:44:24Z</time>
      </trkpt>
      <trkpt lat="44.5605" lon="0.92163">
        <ele>216.43</ele>
        <time>2015-01-11T08:44:34Z</time>
      </trkpt>
      <trkpt lat="44.56039" lon="0.92192">
        <ele>215.47</ele>
        <time>2015-01-11T08:44:38Z</time>
      </trkpt>
      <trkpt lat="44.56026" lon="0.92223">
        <ele>213.55</ele>
        <time>2015-01-11T08:44:43Z</time>
      </trkpt>
      <trkpt lat="44.56019" lon="0.92249">
        <ele>213.07</ele>
        <time>2015-01-11T08:44:47Z</time>
      </trkpt>
      <trkpt lat="44.56005" lon="0.92327">
        <ele>215.47</ele>
        <time>2015-01-11T08:45:00Z</time>
      </trkpt>
      <trkpt lat="44.55991" lon="0.92383">
        <ele>214.99</ele>
        <time>2015-01-11T08:45:11Z</time>
      </trkpt>
      <trkpt lat="44.55968" lon="0.92435">
        <ele>214.51</ele>
        <time>2015-01-11T08:45:21Z</time>
      </trkpt>
      <trkpt lat="44.55938" lon="0.92513">
        <ele>212.11</ele>
        <time>2015-01-11T08:45:35Z</time>
      </trkpt>
      <trkpt lat="44.55932" lon="0.92541">
        <ele>211.15</ele>
        <time>2015-01-11T08:45:40Z</time>
      </trkpt>
      <trkpt lat="44.55925" lon="0.92573">
        <ele>211.15</ele>
        <time>2015-01-11T08:45:45Z</time>
      </trkpt>
      <trkpt lat="44.5592" lon="0.92591">
        <ele>211.15</ele>
        <time>2015-01-11T08:45:48Z</time>
      </trkpt>
      <trkpt lat="44.55911" lon="0.92624">
        <ele>212.11</ele>
        <time>2015-01-11T08:45:54Z</time>
      </trkpt>
      <trkpt lat="44.55896" lon="0.92669">
        <ele>211.63</ele>
        <time>2015-01-11T08:46:03Z</time>
      </trkpt>
      <trkpt lat="44.55878" lon="0.92698">
        <ele>210.19</ele>
        <time>2015-01-11T08:46:09Z</time>
      </trkpt>
      <trkpt lat="44.55869" lon="0.92715">
        <ele>209.7</ele>
        <time>2015-01-11T08:46:12Z</time>
      </trkpt>
      <trkpt lat="44.55823" lon="0.92793">
        <ele>206.82</ele>
        <time>2015-01-11T08:46:25Z</time>
      </trkpt>
      <trkpt lat="44.55814" lon="0.92832">
        <ele>206.34</ele>
        <time>2015-01-11T08:46:31Z</time>
      </trkpt>
      <trkpt lat="44.55812" lon="0.92858">
        <ele>206.34</ele>
        <time>2015-01-11T08:46:35Z</time>
      </trkpt>
      <trkpt lat="44.55811" lon="0.92892">
        <ele>204.9</ele>
        <time>2015-01-11T08:46:40Z</time>
      </trkpt>
      <trkpt lat="44.55808" lon="0.92933">
        <ele>202.98</ele>
        <time>2015-01-11T08:46:47Z</time>
      </trkpt>
      <trkpt lat="44.55801" lon="0.92989">
        <ele>205.38</ele>
        <time>2015-01-11T08:47:00Z</time>
      </trkpt>
      <trkpt lat="44.55791" lon="0.93026">
        <ele>209.22</ele>
        <time>2015-01-11T08:47:10Z</time>
      </trkpt>
      <trkpt lat="44.55795" lon="0.93047">
        <ele>211.63</ele>
        <time>2015-01-11T08:47:16Z</time>
      </trkpt>
      <trkpt lat="44.55776" lon="0.93102">
        <ele>212.11</ele>
        <time>2015-01-11T08:47:28Z</time>
      </trkpt>
      <trkpt lat="44.55767" lon="0.93123">
        <ele>211.63</ele>
        <time>2015-01-11T08:47:32Z</time>
      </trkpt>
      <trkpt lat="44.55759" lon="0.93141">
        <ele>210.67</ele>
        <time>2015-01-11T08:47:35Z</time>
      </trkpt>
      <trkpt lat="44.55744" lon="0.93175">
        <ele>207.3</ele>
        <time>2015-01-11T08:47:40Z</time>
      </trkpt>
      <trkpt lat="44.55727" lon="0.93276">
        <ele>204.42</ele>
        <time>2015-01-11T08:47:53Z</time>
      </trkpt>
      <trkpt lat="44.5574" lon="0.9333">
        <ele>207.3</ele>
        <time>2015-01-11T08:48:04Z</time>
      </trkpt>
      <trkpt lat="44.55729" lon="0.93369">
        <ele>211.15</ele>
        <time>2015-01-11T08:48:15Z</time>
      </trkpt>
      <trkpt lat="44.55711" lon="0.9341">
        <ele>215.95</ele>
        <time>2015-01-11T08:48:30Z</time>
      </trkpt>
      <trkpt lat="44.55695" lon="0.93444">
        <ele>217.88</ele>
        <time>2015-01-11T08:48:42Z</time>
      </trkpt>
      <trkpt lat="44.55677" lon="0.93487">
        <ele>218.36</ele>
        <time>2015-01-11T08:48:53Z</time>
      </trkpt>
      <trkpt lat="44.5565" lon="0.93556">
        <ele>216.91</ele>
        <time>2015-01-11T08:49:04Z</time>
      </trkpt>
      <trkpt lat="44.55624" lon="0.93597">
        <ele>211.63</ele>
        <time>2015-01-11T08:49:13Z</time>
      </trkpt>
      <trkpt lat="44.5561" lon="0.93603">
        <ele>207.78</ele>
        <time>2015-01-11T08:49:17Z</time>
      </trkpt>
      <trkpt lat="44.55581" lon="0.93622">
        <ele>200.57</ele>
        <time>2015-01-11T08:49:23Z</time>
      </trkpt>
      <trkpt lat="44.55563" lon="0.93639">
        <ele>195.28</ele>
        <time>2015-01-11T08:49:32Z</time>
      </trkpt>
      <trkpt lat="44.55563" lon="0.93639">
        <ele>194.32</ele>
        <time>2015-01-11T08:49:51Z</time>
      </trkpt>
      <trkpt lat="44.55562" lon="0.9364">
        <ele>193.84</ele>
        <time>2015-01-11T08:50:13Z</time>
      </trkpt>
      <trkpt lat="44.55561" lon="0.9364">
        <ele>196.73</ele>
        <time>2015-01-11T08:50:33Z</time>
      </trkpt>
      <trkpt lat="44.55561" lon="0.93641">
        <ele>194.8</ele>
        <time>2015-01-11T08:50:59Z</time>
      </trkpt>
      <trkpt lat="44.55563" lon="0.9364">
        <ele>197.21</ele>
        <time>2015-01-11T08:51:23Z</time>
      </trkpt>
      <trkpt lat="44.55563" lon="0.93644">
        <ele>193.84</ele>
        <time>2015-01-11T08:51:47Z</time>
      </trkpt>
      <trkpt lat="44.55563" lon="0.93645">
        <ele>193.36</ele>
        <time>2015-01-11T08:52:08Z</time>
      </trkpt>
      <trkpt lat="44.55552" lon="0.93643">
        <ele>192.88</ele>
        <time>2015-01-11T08:52:17Z</time>
      </trkpt>
      <trkpt lat="44.5554" lon="0.93611">
        <ele>193.84</ele>
        <time>2015-01-11T08:52:29Z</time>
      </trkpt>
      <trkpt lat="44.55537" lon="0.93605">
        <ele>194.32</ele>
        <time>2015-01-11T08:52:32Z</time>
      </trkpt>
      <trkpt lat="44.55526" lon="0.93595">
        <ele>195.28</ele>
        <time>2015-01-11T08:52:38Z</time>
      </trkpt>
      <trkpt lat="44.55521" lon="0.93588">
        <ele>195.77</ele>
        <time>2015-01-11T08:52:41Z</time>
      </trkpt>
      <trkpt lat="44.55511" lon="0.93579">
        <ele>199.13</ele>
        <time>2015-01-11T08:52:48Z</time>
      </trkpt>
      <trkpt lat="44.55487" lon="0.93549">
        <ele>202.98</ele>
        <time>2015-01-11T08:53:02Z</time>
      </trkpt>
      <trkpt lat="44.55475" lon="0.9354">
        <ele>202.98</ele>
        <time>2015-01-11T08:53:05Z</time>
      </trkpt>
      <trkpt lat="44.55453" lon="0.93536">
        <ele>202.01</ele>
        <time>2015-01-11T08:53:09Z</time>
      </trkpt>
      <trkpt lat="44.55414" lon="0.93542">
        <ele>198.65</ele>
        <time>2015-01-11T08:53:16Z</time>
      </trkpt>
      <trkpt lat="44.55378" lon="0.93547">
        <ele>194.32</ele>
        <time>2015-01-11T08:53:23Z</time>
      </trkpt>
      <trkpt lat="44.55369" lon="0.93549">
        <ele>192.4</ele>
        <time>2015-01-11T08:53:25Z</time>
      </trkpt>
      <trkpt lat="44.5536" lon="0.93551">
        <ele>189.52</ele>
        <time>2015-01-11T08:53:27Z</time>
      </trkpt>
      <trkpt lat="44.55336" lon="0.93547">
        <ele>180.38</ele>
        <time>2015-01-11T08:53:36Z</time>
      </trkpt>
      <trkpt lat="44.55336" lon="0.93547">
        <ele>179.42</ele>
        <time>2015-01-11T08:53:39Z</time>
      </trkpt>
      <trkpt lat="44.55343" lon="0.93558">
        <ele>177.98</ele>
        <time>2015-01-11T08:53:45Z</time>
      </trkpt>
      <trkpt lat="44.55348" lon="0.93566">
        <ele>178.46</ele>
        <time>2015-01-11T08:53:53Z</time>
      </trkpt>
      <trkpt lat="44.55361" lon="0.93577">
        <ele>178.46</ele>
        <time>2015-01-11T08:53:58Z</time>
      </trkpt>
      <trkpt lat="44.5537" lon="0.93598">
        <ele>174.62</ele>
        <time>2015-01-11T08:54:03Z</time>
      </trkpt>
      <trkpt lat="44.55372" lon="0.93617">
        <ele>170.77</ele>
        <time>2015-01-11T08:54:13Z</time>
      </trkpt>
      <trkpt lat="44.55374" lon="0.9362">
        <ele>170.77</ele>
        <time>2015-01-11T08:54:33Z</time>
      </trkpt>
      <trkpt lat="44.55373" lon="0.93621">
        <ele>169.81</ele>
        <time>2015-01-11T08:54:42Z</time>
      </trkpt>
      <trkpt lat="44.5537" lon="0.93615">
        <ele>170.29</ele>
        <time>2015-01-11T08:54:53Z</time>
      </trkpt>
      <trkpt lat="44.5537" lon="0.93615">
        <ele>170.29</ele>
        <time>2015-01-11T08:54:54Z</time>
      </trkpt>
      <trkpt lat="44.5537" lon="0.93588">
        <ele>172.21</ele>
        <time>2015-01-11T08:55:06Z</time>
      </trkpt>
      <trkpt lat="44.55366" lon="0.93582">
        <ele>172.21</ele>
        <time>2015-01-11T08:55:09Z</time>
      </trkpt>
      <trkpt lat="44.5535" lon="0.93566">
        <ele>173.17</ele>
        <time>2015-01-11T08:55:19Z</time>
      </trkpt>
      <trkpt lat="44.55342" lon="0.93558">
        <ele>174.14</ele>
        <time>2015-01-11T08:55:23Z</time>
      </trkpt>
      <trkpt lat="44.55337" lon="0.93551">
        <ele>175.1</ele>
        <time>2015-01-11T08:55:26Z</time>
      </trkpt>
      <trkpt lat="44.55327" lon="0.93534">
        <ele>177.98</ele>
        <time>2015-01-11T08:55:38Z</time>
      </trkpt>
      <trkpt lat="44.55315" lon="0.93512">
        <ele>180.38</ele>
        <time>2015-01-11T08:55:51Z</time>
      </trkpt>
      <trkpt lat="44.55297" lon="0.93479">
        <ele>182.31</ele>
        <time>2015-01-11T08:56:02Z</time>
      </trkpt>
      <trkpt lat="44.55266" lon="0.93445">
        <ele>178.46</ele>
        <time>2015-01-11T08:56:13Z</time>
      </trkpt>
      <trkpt lat="44.5526" lon="0.93437">
        <ele>177.02</ele>
        <time>2015-01-11T08:56:15Z</time>
      </trkpt>
      <trkpt lat="44.55246" lon="0.93421">
        <ele>173.17</ele>
        <time>2015-01-11T08:56:24Z</time>
      </trkpt>
      <trkpt lat="44.55245" lon="0.93417">
        <ele>170.77</ele>
        <time>2015-01-11T08:56:38Z</time>
      </trkpt>
      <trkpt lat="44.55227" lon="0.93424">
        <ele>166.45</ele>
        <time>2015-01-11T08:56:45Z</time>
      </trkpt>
      <trkpt lat="44.55211" lon="0.93422">
        <ele>163.56</ele>
        <time>2015-01-11T08:56:49Z</time>
      </trkpt>
      <trkpt lat="44.55165" lon="0.93406">
        <ele>156.35</ele>
        <time>2015-01-11T08:56:58Z</time>
      </trkpt>
      <trkpt lat="44.55162" lon="0.93404">
        <ele>156.35</ele>
        <time>2015-01-11T08:56:59Z</time>
      </trkpt>
      <trkpt lat="44.55155" lon="0.93389">
        <ele>154.91</ele>
        <time>2015-01-11T08:57:03Z</time>
      </trkpt>
      <trkpt lat="44.55127" lon="0.93387">
        <ele>151.54</ele>
        <time>2015-01-11T08:57:11Z</time>
      </trkpt>
      <trkpt lat="44.55105" lon="0.93389">
        <ele>149.14</ele>
        <time>2015-01-11T08:57:15Z</time>
      </trkpt>
      <trkpt lat="44.55096" lon="0.93389">
        <ele>148.18</ele>
        <time>2015-01-11T08:57:17Z</time>
      </trkpt>
      <trkpt lat="44.55065" lon="0.93383">
        <ele>146.74</ele>
        <time>2015-01-11T08:57:26Z</time>
      </trkpt>
      <trkpt lat="44.55063" lon="0.93372">
        <ele>146.74</ele>
        <time>2015-01-11T08:57:33Z</time>
      </trkpt>
      <trkpt lat="44.55065" lon="0.93367">
        <ele>147.22</ele>
        <time>2015-01-11T08:57:35Z</time>
      </trkpt>
      <trkpt lat="44.55064" lon="0.93336">
        <ele>145.78</ele>
        <time>2015-01-11T08:57:46Z</time>
      </trkpt>
      <trkpt lat="44.55056" lon="0.93299">
        <ele>144.82</ele>
        <time>2015-01-11T08:57:51Z</time>
      </trkpt>
      <trkpt lat="44.55039" lon="0.93255">
        <ele>140.01</ele>
        <time>2015-01-11T08:57:59Z</time>
      </trkpt>
      <trkpt lat="44.55042" lon="0.93237">
        <ele>137.61</ele>
        <time>2015-01-11T08:58:03Z</time>
      </trkpt>
      <trkpt lat="44.55037" lon="0.93226">
        <ele>136.16</ele>
        <time>2015-01-11T08:58:07Z</time>
      </trkpt>
      <trkpt lat="44.55024" lon="0.93201">
        <ele>131.84</ele>
        <time>2015-01-11T08:58:13Z</time>
      </trkpt>
      <trkpt lat="44.55019" lon="0.93179">
        <ele>128.95</ele>
        <time>2015-01-11T08:58:17Z</time>
      </trkpt>
      <trkpt lat="44.54994" lon="0.93165">
        <ele>122.71</ele>
        <time>2015-01-11T08:58:26Z</time>
      </trkpt>
      <trkpt lat="44.54974" lon="0.93143">
        <ele>121.74</ele>
        <time>2015-01-11T08:58:32Z</time>
      </trkpt>
      <trkpt lat="44.54962" lon="0.93133">
        <ele>121.26</ele>
        <time>2015-01-11T08:58:35Z</time>
      </trkpt>
      <trkpt lat="44.54953" lon="0.93128">
        <ele>121.26</ele>
        <time>2015-01-11T08:58:37Z</time>
      </trkpt>
      <trkpt lat="44.54939" lon="0.93123">
        <ele>120.3</ele>
        <time>2015-01-11T08:58:40Z</time>
      </trkpt>
      <trkpt lat="44.54926" lon="0.93118">
        <ele>119.82</ele>
        <time>2015-01-11T08:58:43Z</time>
      </trkpt>
      <trkpt lat="44.54907" lon="0.93139">
        <ele>117.9</ele>
        <time>2015-01-11T08:58:53Z</time>
      </trkpt>
      <trkpt lat="44.54865" lon="0.93181">
        <ele>119.34</ele>
        <time>2015-01-11T08:59:11Z</time>
      </trkpt>
      <trkpt lat="44.54824" lon="0.93226">
        <ele>120.78</ele>
        <time>2015-01-11T08:59:27Z</time>
      </trkpt>
      <trkpt lat="44.54778" lon="0.93282">
        <ele>119.34</ele>
        <time>2015-01-11T08:59:44Z</time>
      </trkpt>
      <trkpt lat="44.54719" lon="0.93354">
        <ele>117.42</ele>
        <time>2015-01-11T09:00:03Z</time>
      </trkpt>
      <trkpt lat="44.54666" lon="0.93418">
        <ele>115.98</ele>
        <time>2015-01-11T09:00:17Z</time>
      </trkpt>
      <trkpt lat="44.54608" lon="0.93488">
        <ele>115.5</ele>
        <time>2015-01-11T09:00:33Z</time>
      </trkpt>
      <trkpt lat="44.54529" lon="0.93557">
        <ele>112.13</ele>
        <time>2015-01-11T09:00:50Z</time>
      </trkpt>
      <trkpt lat="44.54455" lon="0.93599">
        <ele>109.25</ele>
        <time>2015-01-11T09:01:04Z</time>
      </trkpt>
      <trkpt lat="44.54412" lon="0.93603">
        <ele>108.29</ele>
        <time>2015-01-11T09:01:12Z</time>
      </trkpt>
      <trkpt lat="44.54395" lon="0.93599">
        <ele>107.81</ele>
        <time>2015-01-11T09:01:15Z</time>
      </trkpt>
      <trkpt lat="44.54354" lon="0.93569">
        <ele>108.29</ele>
        <time>2015-01-11T09:01:24Z</time>
      </trkpt>
      <trkpt lat="44.54333" lon="0.93561">
        <ele>108.29</ele>
        <time>2015-01-11T09:01:29Z</time>
      </trkpt>
      <trkpt lat="44.54322" lon="0.93573">
        <ele>107.81</ele>
        <time>2015-01-11T09:01:33Z</time>
      </trkpt>
      <trkpt lat="44.54295" lon="0.93599">
        <ele>109.73</ele>
        <time>2015-01-11T09:01:45Z</time>
      </trkpt>
      <trkpt lat="44.5427" lon="0.9361">
        <ele>115.01</ele>
        <time>2015-01-11T09:01:58Z</time>
      </trkpt>
      <trkpt lat="44.54237" lon="0.93622">
        <ele>117.42</ele>
        <time>2015-01-11T09:02:10Z</time>
      </trkpt>
      <trkpt lat="44.54205" lon="0.93655">
        <ele>121.74</ele>
        <time>2015-01-11T09:02:25Z</time>
      </trkpt>
      <trkpt lat="44.54179" lon="0.93689">
        <ele>125.59</ele>
        <time>2015-01-11T09:02:39Z</time>
      </trkpt>
      <trkpt lat="44.5415" lon="0.93728">
        <ele>127.51</ele>
        <time>2015-01-11T09:02:54Z</time>
      </trkpt>
      <trkpt lat="44.54126" lon="0.93768">
        <ele>129.92</ele>
        <time>2015-01-11T09:03:09Z</time>
      </trkpt>
      <trkpt lat="44.54099" lon="0.93794">
        <ele>132.8</ele>
        <time>2015-01-11T09:03:23Z</time>
      </trkpt>
      <trkpt lat="44.54064" lon="0.93812">
        <ele>138.09</ele>
        <time>2015-01-11T09:03:38Z</time>
      </trkpt>
      <trkpt lat="44.54046" lon="0.93845">
        <ele>140.49</ele>
        <time>2015-01-11T09:03:51Z</time>
      </trkpt>
      <trkpt lat="44.54034" lon="0.93887">
        <ele>141.93</ele>
        <time>2015-01-11T09:04:04Z</time>
      </trkpt>
      <trkpt lat="44.54023" lon="0.93935">
        <ele>141.45</ele>
        <time>2015-01-11T09:04:15Z</time>
      </trkpt>
      <trkpt lat="44.54017" lon="0.93974">
        <ele>139.05</ele>
        <time>2015-01-11T09:04:23Z</time>
      </trkpt>
      <trkpt lat="44.54018" lon="0.94062">
        <ele>130.4</ele>
        <time>2015-01-11T09:04:33Z</time>
      </trkpt>
      <trkpt lat="44.54023" lon="0.9417">
        <ele>125.11</ele>
        <time>2015-01-11T09:04:44Z</time>
      </trkpt>
      <trkpt lat="44.54023" lon="0.94219">
        <ele>123.19</ele>
        <time>2015-01-11T09:04:50Z</time>
      </trkpt>
      <trkpt lat="44.54018" lon="0.94288">
        <ele>117.42</ele>
        <time>2015-01-11T09:04:59Z</time>
      </trkpt>
      <trkpt lat="44.54005" lon="0.94295">
        <ele>114.53</ele>
        <time>2015-01-11T09:05:03Z</time>
      </trkpt>
      <trkpt lat="44.53994" lon="0.9431">
        <ele>109.25</ele>
        <time>2015-01-11T09:05:09Z</time>
      </trkpt>
      <trkpt lat="44.54027" lon="0.94413">
        <ele>99.15</ele>
        <time>2015-01-11T09:05:21Z</time>
      </trkpt>
      <trkpt lat="44.54036" lon="0.94441">
        <ele>97.23</ele>
        <time>2015-01-11T09:05:24Z</time>
      </trkpt>
      <trkpt lat="44.5406" lon="0.94451">
        <ele>96.27</ele>
        <time>2015-01-11T09:05:30Z</time>
      </trkpt>
      <trkpt lat="44.54131" lon="0.94403">
        <ele>96.75</ele>
        <time>2015-01-11T09:05:48Z</time>
      </trkpt>
      <trkpt lat="44.54139" lon="0.94398">
        <ele>96.75</ele>
        <time>2015-01-11T09:05:50Z</time>
      </trkpt>
      <trkpt lat="44.5417" lon="0.94367">
        <ele>94.35</ele>
        <time>2015-01-11T09:05:58Z</time>
      </trkpt>
      <trkpt lat="44.54199" lon="0.94321">
        <ele>93.39</ele>
        <time>2015-01-11T09:06:07Z</time>
      </trkpt>
      <trkpt lat="44.54215" lon="0.94286">
        <ele>93.39</ele>
        <time>2015-01-11T09:06:14Z</time>
      </trkpt>
      <trkpt lat="44.5422" lon="0.94261">
        <ele>93.39</ele>
        <time>2015-01-11T09:06:18Z</time>
      </trkpt>
      <trkpt lat="44.54218" lon="0.94174">
        <ele>98.19</ele>
        <time>2015-01-11T09:06:32Z</time>
      </trkpt>
      <trkpt lat="44.54236" lon="0.94147">
        <ele>99.15</ele>
        <time>2015-01-11T09:06:41Z</time>
      </trkpt>
      <trkpt lat="44.54247" lon="0.94145">
        <ele>99.15</ele>
        <time>2015-01-11T09:06:44Z</time>
      </trkpt>
      <trkpt lat="44.54264" lon="0.94142">
        <ele>98.19</ele>
        <time>2015-01-11T09:06:48Z</time>
      </trkpt>
      <trkpt lat="44.54312" lon="0.94139">
        <ele>96.27</ele>
        <time>2015-01-11T09:07:00Z</time>
      </trkpt>
      <trkpt lat="44.54345" lon="0.9416">
        <ele>96.27</ele>
        <time>2015-01-11T09:07:11Z</time>
      </trkpt>
      <trkpt lat="44.54369" lon="0.94218">
        <ele>97.23</ele>
        <time>2015-01-11T09:07:22Z</time>
      </trkpt>
      <trkpt lat="44.54401" lon="0.94253">
        <ele>94.35</ele>
        <time>2015-01-11T09:07:33Z</time>
      </trkpt>
      <trkpt lat="44.54404" lon="0.94256">
        <ele>94.35</ele>
        <time>2015-01-11T09:07:34Z</time>
      </trkpt>
      <trkpt lat="44.54413" lon="0.94268">
        <ele>93.87</ele>
        <time>2015-01-11T09:07:37Z</time>
      </trkpt>
      <trkpt lat="44.54427" lon="0.94283">
        <ele>93.87</ele>
        <time>2015-01-11T09:07:41Z</time>
      </trkpt>
      <trkpt lat="44.54468" lon="0.9432">
        <ele>94.35</ele>
        <time>2015-01-11T09:07:54Z</time>
      </trkpt>
      <trkpt lat="44.54505" lon="0.94361">
        <ele>96.27</ele>
        <time>2015-01-11T09:08:06Z</time>
      </trkpt>
      <trkpt lat="44.54531" lon="0.94417">
        <ele>99.15</ele>
        <time>2015-01-11T09:08:19Z</time>
      </trkpt>
      <trkpt lat="44.54546" lon="0.9447">
        <ele>103.96</ele>
        <time>2015-01-11T09:08:31Z</time>
      </trkpt>
      <trkpt lat="44.54565" lon="0.94515">
        <ele>105.4</ele>
        <time>2015-01-11T09:08:43Z</time>
      </trkpt>
      <trkpt lat="44.54598" lon="0.9453">
        <ele>109.25</ele>
        <time>2015-01-11T09:08:55Z</time>
      </trkpt>
      <trkpt lat="44.54625" lon="0.94545">
        <ele>112.13</ele>
        <time>2015-01-11T09:09:07Z</time>
      </trkpt>
      <trkpt lat="44.5465" lon="0.94568">
        <ele>115.01</ele>
        <time>2015-01-11T09:09:21Z</time>
      </trkpt>
      <trkpt lat="44.54663" lon="0.94578">
        <ele>116.46</ele>
        <time>2015-01-11T09:09:27Z</time>
      </trkpt>
      <trkpt lat="44.54674" lon="0.94562">
        <ele>119.34</ele>
        <time>2015-01-11T09:09:37Z</time>
      </trkpt>
      <trkpt lat="44.54677" lon="0.94554">
        <ele>120.3</ele>
        <time>2015-01-11T09:09:41Z</time>
      </trkpt>
      <trkpt lat="44.54688" lon="0.9453">
        <ele>122.71</ele>
        <time>2015-01-11T09:09:53Z</time>
      </trkpt>
      <trkpt lat="44.54699" lon="0.94514">
        <ele>123.67</ele>
        <time>2015-01-11T09:10:03Z</time>
      </trkpt>
      <trkpt lat="44.54705" lon="0.94505">
        <ele>125.11</ele>
        <time>2015-01-11T09:10:11Z</time>
      </trkpt>
      <trkpt lat="44.54712" lon="0.94481">
        <ele>129.43</ele>
        <time>2015-01-11T09:10:25Z</time>
      </trkpt>
      <trkpt lat="44.54724" lon="0.94458">
        <ele>129.92</ele>
        <time>2015-01-11T09:10:39Z</time>
      </trkpt>
      <trkpt lat="44.5473" lon="0.94447">
        <ele>130.88</ele>
        <time>2015-01-11T09:10:46Z</time>
      </trkpt>
      <trkpt lat="44.54741" lon="0.94431">
        <ele>131.84</ele>
        <time>2015-01-11T09:10:55Z</time>
      </trkpt>
      <trkpt lat="44.54742" lon="0.94427">
        <ele>131.84</ele>
        <time>2015-01-11T09:10:57Z</time>
      </trkpt>
      <trkpt lat="44.54754" lon="0.94403">
        <ele>136.64</ele>
        <time>2015-01-11T09:11:11Z</time>
      </trkpt>
      <trkpt lat="44.54755" lon="0.94402">
        <ele>137.13</ele>
        <time>2015-01-11T09:11:12Z</time>
      </trkpt>
      <trkpt lat="44.54757" lon="0.94396">
        <ele>139.05</ele>
        <time>2015-01-11T09:11:15Z</time>
      </trkpt>
      <trkpt lat="44.54758" lon="0.94394">
        <ele>139.53</ele>
        <time>2015-01-11T09:11:17Z</time>
      </trkpt>
      <trkpt lat="44.5476" lon="0.94387">
        <ele>141.93</ele>
        <time>2015-01-11T09:11:22Z</time>
      </trkpt>
      <trkpt lat="44.54768" lon="0.94364">
        <ele>150.1</ele>
        <time>2015-01-11T09:11:36Z</time>
      </trkpt>
      <trkpt lat="44.54769" lon="0.94359">
        <ele>151.54</ele>
        <time>2015-01-11T09:11:39Z</time>
      </trkpt>
      <trkpt lat="44.54773" lon="0.94352">
        <ele>154.43</ele>
        <time>2015-01-11T09:11:43Z</time>
      </trkpt>
      <trkpt lat="44.54781" lon="0.94333">
        <ele>159.72</ele>
        <time>2015-01-11T09:11:55Z</time>
      </trkpt>
      <trkpt lat="44.54786" lon="0.94324">
        <ele>162.12</ele>
        <time>2015-01-11T09:12:06Z</time>
      </trkpt>
      <trkpt lat="44.54793" lon="0.94317">
        <ele>163.56</ele>
        <time>2015-01-11T09:12:19Z</time>
      </trkpt>
      <trkpt lat="44.54797" lon="0.94308">
        <ele>164.52</ele>
        <time>2015-01-11T09:12:33Z</time>
      </trkpt>
      <trkpt lat="44.54809" lon="0.9429">
        <ele>162.6</ele>
        <time>2015-01-11T09:12:46Z</time>
      </trkpt>
      <trkpt lat="44.54819" lon="0.94276">
        <ele>161.16</ele>
        <time>2015-01-11T09:12:56Z</time>
      </trkpt>
      <trkpt lat="44.54831" lon="0.94256">
        <ele>164.52</ele>
        <time>2015-01-11T09:13:09Z</time>
      </trkpt>
      <trkpt lat="44.54849" lon="0.94236">
        <ele>165.48</ele>
        <time>2015-01-11T09:13:23Z</time>
      </trkpt>
      <trkpt lat="44.5486" lon="0.9422">
        <ele>165.48</ele>
        <time>2015-01-11T09:13:35Z</time>
      </trkpt>
      <trkpt lat="44.54865" lon="0.94212">
        <ele>165.96</ele>
        <time>2015-01-11T09:13:48Z</time>
      </trkpt>
      <trkpt lat="44.54866" lon="0.94212">
        <ele>165.48</ele>
        <time>2015-01-11T09:14:03Z</time>
      </trkpt>
      <trkpt lat="44.54868" lon="0.94213">
        <ele>160.2</ele>
        <time>2015-01-11T09:14:30Z</time>
      </trkpt>
      <trkpt lat="44.54872" lon="0.94218">
        <ele>154.91</ele>
        <time>2015-01-11T09:14:53Z</time>
      </trkpt>
      <trkpt lat="44.54871" lon="0.94218">
        <ele>154.43</ele>
        <time>2015-01-11T09:15:16Z</time>
      </trkpt>
      <trkpt lat="44.54871" lon="0.94218">
        <ele>160.68</ele>
        <time>2015-01-11T09:15:47Z</time>
      </trkpt>
      <trkpt lat="44.5487" lon="0.94219">
        <ele>159.24</ele>
        <time>2015-01-11T09:16:11Z</time>
      </trkpt>
      <trkpt lat="44.54871" lon="0.94216">
        <ele>157.79</ele>
        <time>2015-01-11T09:16:26Z</time>
      </trkpt>
      <trkpt lat="44.54871" lon="0.94211">
        <ele>161.64</ele>
        <time>2015-01-11T09:16:38Z</time>
      </trkpt>
      <trkpt lat="44.54857" lon="0.94184">
        <ele>159.72</ele>
        <time>2015-01-11T09:16:46Z</time>
      </trkpt>
      <trkpt lat="44.54847" lon="0.94181">
        <ele>158.27</ele>
        <time>2015-01-11T09:16:48Z</time>
      </trkpt>
      <trkpt lat="44.54837" lon="0.94141">
        <ele>154.91</ele>
        <time>2015-01-11T09:16:55Z</time>
      </trkpt>
      <trkpt lat="44.54837" lon="0.94083">
        <ele>149.62</ele>
        <time>2015-01-11T09:17:03Z</time>
      </trkpt>
      <trkpt lat="44.54825" lon="0.94073">
        <ele>148.18</ele>
        <time>2015-01-11T09:17:05Z</time>
      </trkpt>
      <trkpt lat="44.54802" lon="0.94059">
        <ele>146.26</ele>
        <time>2015-01-11T09:17:11Z</time>
      </trkpt>
      <trkpt lat="44.54808" lon="0.94044">
        <ele>146.74</ele>
        <time>2015-01-11T09:17:21Z</time>
      </trkpt>
      <trkpt lat="44.54809" lon="0.94043">
        <ele>146.74</ele>
        <time>2015-01-11T09:17:22Z</time>
      </trkpt>
      <trkpt lat="44.54827" lon="0.9404">
        <ele>148.66</ele>
        <time>2015-01-11T09:17:36Z</time>
      </trkpt>
      <trkpt lat="44.54828" lon="0.94039">
        <ele>148.66</ele>
        <time>2015-01-11T09:17:37Z</time>
      </trkpt>
      <trkpt lat="44.54835" lon="0.94018">
        <ele>151.54</ele>
        <time>2015-01-11T09:17:50Z</time>
      </trkpt>
      <trkpt lat="44.54838" lon="0.94012">
        <ele>152.03</ele>
        <time>2015-01-11T09:17:54Z</time>
      </trkpt>
      <trkpt lat="44.54848" lon="0.93994">
        <ele>155.39</ele>
        <time>2015-01-11T09:18:07Z</time>
      </trkpt>
      <trkpt lat="44.54849" lon="0.93988">
        <ele>156.35</ele>
        <time>2015-01-11T09:18:10Z</time>
      </trkpt>
      <trkpt lat="44.54852" lon="0.93979">
        <ele>158.75</ele>
        <time>2015-01-11T09:18:16Z</time>
      </trkpt>
      <trkpt lat="44.54853" lon="0.93971">
        <ele>160.2</ele>
        <time>2015-01-11T09:18:21Z</time>
      </trkpt>
      <trkpt lat="44.54852" lon="0.93969">
        <ele>161.64</ele>
        <time>2015-01-11T09:18:33Z</time>
      </trkpt>
      <trkpt lat="44.54851" lon="0.9397">
        <ele>162.6</ele>
        <time>2015-01-11T09:18:49Z</time>
      </trkpt>
      <trkpt lat="44.54846" lon="0.93967">
        <ele>164.04</ele>
        <time>2015-01-11T09:19:01Z</time>
      </trkpt>
      <trkpt lat="44.54845" lon="0.93963">
        <ele>165.48</ele>
        <time>2015-01-11T09:19:13Z</time>
      </trkpt>
      <trkpt lat="44.54847" lon="0.93959">
        <ele>166.45</ele>
        <time>2015-01-11T09:19:20Z</time>
      </trkpt>
      <trkpt lat="44.54849" lon="0.93951">
        <ele>168.37</ele>
        <time>2015-01-11T09:19:33Z</time>
      </trkpt>
      <trkpt lat="44.54853" lon="0.93949">
        <ele>165.96</ele>
        <time>2015-01-11T09:19:45Z</time>
      </trkpt>
      <trkpt lat="44.54859" lon="0.9395">
        <ele>167.41</ele>
        <time>2015-01-11T09:19:50Z</time>
      </trkpt>
      <trkpt lat="44.54866" lon="0.93943">
        <ele>170.29</ele>
        <time>2015-01-11T09:19:56Z</time>
      </trkpt>
      <trkpt lat="44.54871" lon="0.93933">
        <ele>171.25</ele>
        <time>2015-01-11T09:20:02Z</time>
      </trkpt>
      <trkpt lat="44.54881" lon="0.9393">
        <ele>172.21</ele>
        <time>2015-01-11T09:20:09Z</time>
      </trkpt>
      <trkpt lat="44.54884" lon="0.93928">
        <ele>173.66</ele>
        <time>2015-01-11T09:20:11Z</time>
      </trkpt>
      <trkpt lat="44.54892" lon="0.93911">
        <ele>177.5</ele>
        <time>2015-01-11T09:20:19Z</time>
      </trkpt>
      <trkpt lat="44.549" lon="0.93895">
        <ele>179.42</ele>
        <time>2015-01-11T09:20:27Z</time>
      </trkpt>
      <trkpt lat="44.54904" lon="0.93874">
        <ele>176.54</ele>
        <time>2015-01-11T09:20:37Z</time>
      </trkpt>
      <trkpt lat="44.549" lon="0.93863">
        <ele>175.1</ele>
        <time>2015-01-11T09:20:42Z</time>
      </trkpt>
      <trkpt lat="44.54901" lon="0.93845">
        <ele>175.1</ele>
        <time>2015-01-11T09:20:55Z</time>
      </trkpt>
      <trkpt lat="44.549" lon="0.93844">
        <ele>175.1</ele>
        <time>2015-01-11T09:20:56Z</time>
      </trkpt>
      <trkpt lat="44.549" lon="0.93837">
        <ele>177.02</ele>
        <time>2015-01-11T09:21:08Z</time>
      </trkpt>
      <trkpt lat="44.549" lon="0.93834">
        <ele>177.5</ele>
        <time>2015-01-11T09:21:30Z</time>
      </trkpt>
      <trkpt lat="44.549" lon="0.93832">
        <ele>178.94</ele>
        <time>2015-01-11T09:21:53Z</time>
      </trkpt>
      <trkpt lat="44.54904" lon="0.93833">
        <ele>178.46</ele>
        <time>2015-01-11T09:22:02Z</time>
      </trkpt>
      <trkpt lat="44.5491" lon="0.93833">
        <ele>178.94</ele>
        <time>2015-01-11T09:22:06Z</time>
      </trkpt>
      <trkpt lat="44.54942" lon="0.93838">
        <ele>181.83</ele>
        <time>2015-01-11T09:22:20Z</time>
      </trkpt>
      <trkpt lat="44.54993" lon="0.93853">
        <ele>178.46</ele>
        <time>2015-01-11T09:22:36Z</time>
      </trkpt>
      <trkpt lat="44.55066" lon="0.93884">
        <ele>178.46</ele>
        <time>2015-01-11T09:22:58Z</time>
      </trkpt>
      <trkpt lat="44.55132" lon="0.93911">
        <ele>178.46</ele>
        <time>2015-01-11T09:23:17Z</time>
      </trkpt>
      <trkpt lat="44.55177" lon="0.93924">
        <ele>180.87</ele>
        <time>2015-01-11T09:23:32Z</time>
      </trkpt>
      <trkpt lat="44.55221" lon="0.93912">
        <ele>180.87</ele>
        <time>2015-01-11T09:23:44Z</time>
      </trkpt>
      <trkpt lat="44.5526" lon="0.93911">
        <ele>182.31</ele>
        <time>2015-01-11T09:23:54Z</time>
      </trkpt>
      <trkpt lat="44.55285" lon="0.93928">
        <ele>182.31</ele>
        <time>2015-01-11T09:24:02Z</time>
      </trkpt>
      <trkpt lat="44.55321" lon="0.93977">
        <ele>185.67</ele>
        <time>2015-01-11T09:24:17Z</time>
      </trkpt>
      <trkpt lat="44.55358" lon="0.93959">
        <ele>188.56</ele>
        <time>2015-01-11T09:24:30Z</time>
      </trkpt>
      <trkpt lat="44.55404" lon="0.93923">
        <ele>191.44</ele>
        <time>2015-01-11T09:24:46Z</time>
      </trkpt>
      <trkpt lat="44.55441" lon="0.93872">
        <ele>193.84</ele>
        <time>2015-01-11T09:25:01Z</time>
      </trkpt>
      <trkpt lat="44.55484" lon="0.93816">
        <ele>196.25</ele>
        <time>2015-01-11T09:25:18Z</time>
      </trkpt>
      <trkpt lat="44.5552" lon="0.93767">
        <ele>197.21</ele>
        <time>2015-01-11T09:25:33Z</time>
      </trkpt>
      <trkpt lat="44.55533" lon="0.93713">
        <ele>196.73</ele>
        <time>2015-01-11T09:25:45Z</time>
      </trkpt>
      <trkpt lat="44.55549" lon="0.93663">
        <ele>194.32</ele>
        <time>2015-01-11T09:25:53Z</time>
      </trkpt>
      <trkpt lat="44.55575" lon="0.93637">
        <ele>194.8</ele>
        <time>2015-01-11T09:26:03Z</time>
      </trkpt>
      <trkpt lat="44.55578" lon="0.93637">
        <ele>194.32</ele>
        <time>2015-01-11T09:26:04Z</time>
      </trkpt>
      <trkpt lat="44.55617" lon="0.93669">
        <ele>188.08</ele>
        <time>2015-01-11T09:26:13Z</time>
      </trkpt>
      <trkpt lat="44.55639" lon="0.93679">
        <ele>186.63</ele>
        <time>2015-01-11T09:26:17Z</time>
      </trkpt>
      <trkpt lat="44.55654" lon="0.93679">
        <ele>185.67</ele>
        <time>2015-01-11T09:26:19Z</time>
      </trkpt>
      <trkpt lat="44.55681" lon="0.93694">
        <ele>184.71</ele>
        <time>2015-01-11T09:26:23Z</time>
      </trkpt>
      <trkpt lat="44.5569" lon="0.93708">
        <ele>184.23</ele>
        <time>2015-01-11T09:26:25Z</time>
      </trkpt>
      <trkpt lat="44.55734" lon="0.93745">
        <ele>185.19</ele>
        <time>2015-01-11T09:26:35Z</time>
      </trkpt>
      <trkpt lat="44.5578" lon="0.93768">
        <ele>183.27</ele>
        <time>2015-01-11T09:26:43Z</time>
      </trkpt>
      <trkpt lat="44.55807" lon="0.93771">
        <ele>181.83</ele>
        <time>2015-01-11T09:26:47Z</time>
      </trkpt>
      <trkpt lat="44.55843" lon="0.93746">
        <ele>181.83</ele>
        <time>2015-01-11T09:26:57Z</time>
      </trkpt>
      <trkpt lat="44.55858" lon="0.93718">
        <ele>180.87</ele>
        <time>2015-01-11T09:27:06Z</time>
      </trkpt>
      <trkpt lat="44.55873" lon="0.93671">
        <ele>182.79</ele>
        <time>2015-01-11T09:27:17Z</time>
      </trkpt>
      <trkpt lat="44.55875" lon="0.93648">
        <ele>184.23</ele>
        <time>2015-01-11T09:27:22Z</time>
      </trkpt>
      <trkpt lat="44.55887" lon="0.93601">
        <ele>185.67</ele>
        <time>2015-01-11T09:27:34Z</time>
      </trkpt>
      <trkpt lat="44.55898" lon="0.9356">
        <ele>182.79</ele>
        <time>2015-01-11T09:27:43Z</time>
      </trkpt>
      <trkpt lat="44.55903" lon="0.93534">
        <ele>179.9</ele>
        <time>2015-01-11T09:27:47Z</time>
      </trkpt>
      <trkpt lat="44.55906" lon="0.93513">
        <ele>178.94</ele>
        <time>2015-01-11T09:27:50Z</time>
      </trkpt>
      <trkpt lat="44.55917" lon="0.93474">
        <ele>176.06</ele>
        <time>2015-01-11T09:27:56Z</time>
      </trkpt>
      <trkpt lat="44.55939" lon="0.93413">
        <ele>170.77</ele>
        <time>2015-01-11T09:28:07Z</time>
      </trkpt>
      <trkpt lat="44.55943" lon="0.93371">
        <ele>170.29</ele>
        <time>2015-01-11T09:28:15Z</time>
      </trkpt>
      <trkpt lat="44.55945" lon="0.93337">
        <ele>168.37</ele>
        <time>2015-01-11T09:28:24Z</time>
      </trkpt>
      <trkpt lat="44.55949" lon="0.93334">
        <ele>167.89</ele>
        <time>2015-01-11T09:28:33Z</time>
      </trkpt>
      <trkpt lat="44.55961" lon="0.93325">
        <ele>168.85</ele>
        <time>2015-01-11T09:28:37Z</time>
      </trkpt>
      <trkpt lat="44.5598" lon="0.93315">
        <ele>167.89</ele>
        <time>2015-01-11T09:28:41Z</time>
      </trkpt>
      <trkpt lat="44.56005" lon="0.93304">
        <ele>166.45</ele>
        <time>2015-01-11T09:28:46Z</time>
      </trkpt>
      <trkpt lat="44.56043" lon="0.93286">
        <ele>169.33</ele>
        <time>2015-01-11T09:28:56Z</time>
      </trkpt>
      <trkpt lat="44.56071" lon="0.9327">
        <ele>177.98</ele>
        <time>2015-01-11T09:29:07Z</time>
      </trkpt>
      <trkpt lat="44.56095" lon="0.93261">
        <ele>181.83</ele>
        <time>2015-01-11T09:29:19Z</time>
      </trkpt>
      <trkpt lat="44.56128" lon="0.93255">
        <ele>181.83</ele>
        <time>2015-01-11T09:29:33Z</time>
      </trkpt>
      <trkpt lat="44.56147" lon="0.93267">
        <ele>185.19</ele>
        <time>2015-01-11T09:29:44Z</time>
      </trkpt>
      <trkpt lat="44.56155" lon="0.93267">
        <ele>184.71</ele>
        <time>2015-01-11T09:29:57Z</time>
      </trkpt>
      <trkpt lat="44.56155" lon="0.93263">
        <ele>186.15</ele>
        <time>2015-01-11T09:30:20Z</time>
      </trkpt>
      <trkpt lat="44.56155" lon="0.93264">
        <ele>187.59</ele>
        <time>2015-01-11T09:30:42Z</time>
      </trkpt>
      <trkpt lat="44.56155" lon="0.93265">
        <ele>187.11</ele>
        <time>2015-01-11T09:31:10Z</time>
      </trkpt>
      <trkpt lat="44.56162" lon="0.93263">
        <ele>184.71</ele>
        <time>2015-01-11T09:31:41Z</time>
      </trkpt>
      <trkpt lat="44.56176" lon="0.93254">
        <ele>183.27</ele>
        <time>2015-01-11T09:31:46Z</time>
      </trkpt>
      <trkpt lat="44.56228" lon="0.9322">
        <ele>179.9</ele>
        <time>2015-01-11T09:31:59Z</time>
      </trkpt>
      <trkpt lat="44.56254" lon="0.93188">
        <ele>179.42</ele>
        <time>2015-01-11T09:32:09Z</time>
      </trkpt>
      <trkpt lat="44.56259" lon="0.93178">
        <ele>178.94</ele>
        <time>2015-01-11T09:32:11Z</time>
      </trkpt>
      <trkpt lat="44.56278" lon="0.93125">
        <ele>177.5</ele>
        <time>2015-01-11T09:32:20Z</time>
      </trkpt>
      <trkpt lat="44.56289" lon="0.93064">
        <ele>179.9</ele>
        <time>2015-01-11T09:32:35Z</time>
      </trkpt>
      <trkpt lat="44.56293" lon="0.93002">
        <ele>182.31</ele>
        <time>2015-01-11T09:32:49Z</time>
      </trkpt>
      <trkpt lat="44.56295" lon="0.92969">
        <ele>183.27</ele>
        <time>2015-01-11T09:32:57Z</time>
      </trkpt>
      <trkpt lat="44.56308" lon="0.92955">
        <ele>185.19</ele>
        <time>2015-01-11T09:33:04Z</time>
      </trkpt>
      <trkpt lat="44.56321" lon="0.92964">
        <ele>187.59</ele>
        <time>2015-01-11T09:33:12Z</time>
      </trkpt>
      <trkpt lat="44.5634" lon="0.92972">
        <ele>189.52</ele>
        <time>2015-01-11T09:33:22Z</time>
      </trkpt>
      <trkpt lat="44.56355" lon="0.92958">
        <ele>190.96</ele>
        <time>2015-01-11T09:33:32Z</time>
      </trkpt>
      <trkpt lat="44.5637" lon="0.9292">
        <ele>195.77</ele>
        <time>2015-01-11T09:33:47Z</time>
      </trkpt>
      <trkpt lat="44.56383" lon="0.92877">
        <ele>196.25</ele>
        <time>2015-01-11T09:34:03Z</time>
      </trkpt>
      <trkpt lat="44.56394" lon="0.92847">
        <ele>198.17</ele>
        <time>2015-01-11T09:34:16Z</time>
      </trkpt>
      <trkpt lat="44.56398" lon="0.92804">
        <ele>199.61</ele>
        <time>2015-01-11T09:34:31Z</time>
      </trkpt>
      <trkpt lat="44.56402" lon="0.92779">
        <ele>198.65</ele>
        <time>2015-01-11T09:34:42Z</time>
      </trkpt>
      <trkpt lat="44.5642" lon="0.9277">
        <ele>200.57</ele>
        <time>2015-01-11T09:34:53Z</time>
      </trkpt>
      <trkpt lat="44.56424" lon="0.92767">
        <ele>201.05</ele>
        <time>2015-01-11T09:34:55Z</time>
      </trkpt>
      <trkpt lat="44.56443" lon="0.92754">
        <ele>203.94</ele>
        <time>2015-01-11T09:35:10Z</time>
      </trkpt>
      <trkpt lat="44.56458" lon="0.92732">
        <ele>209.7</ele>
        <time>2015-01-11T09:35:25Z</time>
      </trkpt>
      <trkpt lat="44.56475" lon="0.92703">
        <ele>213.07</ele>
        <time>2015-01-11T09:35:41Z</time>
      </trkpt>
      <trkpt lat="44.56479" lon="0.927">
        <ele>214.99</ele>
        <time>2015-01-11T09:35:44Z</time>
      </trkpt>
      <trkpt lat="44.56501" lon="0.92688">
        <ele>220.76</ele>
        <time>2015-01-11T09:35:59Z</time>
      </trkpt>
      <trkpt lat="44.56519" lon="0.92678">
        <ele>225.09</ele>
        <time>2015-01-11T09:36:12Z</time>
      </trkpt>
      <trkpt lat="44.56527" lon="0.92674">
        <ele>227.49</ele>
        <time>2015-01-11T09:36:18Z</time>
      </trkpt>
      <trkpt lat="44.56534" lon="0.92673">
        <ele>227.97</ele>
        <time>2015-01-11T09:36:22Z</time>
      </trkpt>
      <trkpt lat="44.56538" lon="0.92677">
        <ele>229.41</ele>
        <time>2015-01-11T09:36:26Z</time>
      </trkpt>
      <trkpt lat="44.56541" lon="0.92679">
        <ele>229.89</ele>
        <time>2015-01-11T09:36:28Z</time>
      </trkpt>
      <trkpt lat="44.56548" lon="0.92693">
        <ele>231.33</ele>
        <time>2015-01-11T09:36:36Z</time>
      </trkpt>
      <trkpt lat="44.56564" lon="0.92705">
        <ele>232.78</ele>
        <time>2015-01-11T09:36:49Z</time>
      </trkpt>
      <trkpt lat="44.56582" lon="0.92714">
        <ele>234.7</ele>
        <time>2015-01-11T09:37:02Z</time>
      </trkpt>
      <trkpt lat="44.56605" lon="0.92718">
        <ele>235.66</ele>
        <time>2015-01-11T09:37:18Z</time>
      </trkpt>
      <trkpt lat="44.5662" lon="0.92715">
        <ele>238.54</ele>
        <time>2015-01-11T09:37:29Z</time>
      </trkpt>
      <trkpt lat="44.56626" lon="0.92717">
        <ele>239.99</ele>
        <time>2015-01-11T09:37:33Z</time>
      </trkpt>
      <trkpt lat="44.56644" lon="0.92721">
        <ele>242.39</ele>
        <time>2015-01-11T09:37:46Z</time>
      </trkpt>
      <trkpt lat="44.56672" lon="0.92726">
        <ele>243.83</ele>
        <time>2015-01-11T09:38:01Z</time>
      </trkpt>
      <trkpt lat="44.56688" lon="0.92736">
        <ele>245.27</ele>
        <time>2015-01-11T09:38:12Z</time>
      </trkpt>
      <trkpt lat="44.56707" lon="0.9275">
        <ele>249.12</ele>
        <time>2015-01-11T09:38:26Z</time>
      </trkpt>
      <trkpt lat="44.56711" lon="0.92753">
        <ele>249.12</ele>
        <time>2015-01-11T09:38:38Z</time>
      </trkpt>
      <trkpt lat="44.56717" lon="0.92759">
        <ele>249.12</ele>
        <time>2015-01-11T09:39:02Z</time>
      </trkpt>
      <trkpt lat="44.56717" lon="0.92757">
        <ele>249.6</ele>
        <time>2015-01-11T09:39:29Z</time>
      </trkpt>
      <trkpt lat="44.5672" lon="0.92758">
        <ele>248.16</ele>
        <time>2015-01-11T09:40:03Z</time>
      </trkpt>
      <trkpt lat="44.56718" lon="0.92753">
        <ele>250.56</ele>
        <time>2015-01-11T09:40:32Z</time>
      </trkpt>
      <trkpt lat="44.56719" lon="0.92759">
        <ele>251.04</ele>
        <time>2015-01-11T09:40:46Z</time>
      </trkpt>
      <trkpt lat="44.56722" lon="0.92762">
        <ele>248.16</ele>
        <time>2015-01-11T09:41:01Z</time>
      </trkpt>
      <trkpt lat="44.56724" lon="0.92762">
        <ele>249.6</ele>
        <time>2015-01-11T09:41:41Z</time>
      </trkpt>
      <trkpt lat="44.56725" lon="0.92764">
        <ele>249.6</ele>
        <time>2015-01-11T09:42:09Z</time>
      </trkpt>
      <trkpt lat="44.56728" lon="0.92757">
        <ele>252.48</ele>
        <time>2015-01-11T09:42:41Z</time>
      </trkpt>
      <trkpt lat="44.5673" lon="0.92756">
        <ele>254.89</ele>
        <time>2015-01-11T09:43:13Z</time>
      </trkpt>
      <trkpt lat="44.56723" lon="0.92764">
        <ele>257.77</ele>
        <time>2015-01-11T09:43:50Z</time>
      </trkpt>
      <trkpt lat="44.56718" lon="0.92763">
        <ele>256.33</ele>
        <time>2015-01-11T09:44:22Z</time>
      </trkpt>
      <trkpt lat="44.56718" lon="0.92763">
        <ele>260.65</ele>
        <time>2015-01-11T09:44:40Z</time>
      </trkpt>
      <trkpt lat="44.56718" lon="0.92765">
        <ele>255.85</ele>
        <time>2015-01-11T09:44:58Z</time>
      </trkpt>
      <trkpt lat="44.56722" lon="0.92767">
        <ele>252</ele>
        <time>2015-01-11T09:45:40Z</time>
      </trkpt>
      <trkpt lat="44.5672" lon="0.92764">
        <ele>249.6</ele>
        <time>2015-01-11T09:46:22Z</time>
      </trkpt>
      <trkpt lat="44.5672" lon="0.92767">
        <ele>251.04</ele>
        <time>2015-01-11T09:46:50Z</time>
      </trkpt>
      <trkpt lat="44.5672" lon="0.92771">
        <ele>252</ele>
        <time>2015-01-11T09:47:23Z</time>
      </trkpt>
      <trkpt lat="44.56722" lon="0.92767">
        <ele>249.12</ele>
        <time>2015-01-11T09:47:48Z</time>
      </trkpt>
      <trkpt lat="44.56722" lon="0.92759">
        <ele>247.68</ele>
        <time>2015-01-11T09:48:04Z</time>
      </trkpt>
      <trkpt lat="44.56732" lon="0.92762">
        <ele>248.16</ele>
        <time>2015-01-11T09:48:24Z</time>
      </trkpt>
      <trkpt lat="44.56733" lon="0.92763">
        <ele>248.16</ele>
        <time>2015-01-11T09:48:25Z</time>
      </trkpt>
      <trkpt lat="44.5674" lon="0.92773">
        <ele>248.64</ele>
        <time>2015-01-11T09:48:32Z</time>
      </trkpt>
      <trkpt lat="44.56773" lon="0.928">
        <ele>245.75</ele>
        <time>2015-01-11T09:48:44Z</time>
      </trkpt>
      <trkpt lat="44.56801" lon="0.92822">
        <ele>248.16</ele>
        <time>2015-01-11T09:48:55Z</time>
      </trkpt>
      <trkpt lat="44.56834" lon="0.92859">
        <ele>249.6</ele>
        <time>2015-01-11T09:49:07Z</time>
      </trkpt>
      <trkpt lat="44.56862" lon="0.92887">
        <ele>248.64</ele>
        <time>2015-01-11T09:49:17Z</time>
      </trkpt>
      <trkpt lat="44.56886" lon="0.92916">
        <ele>251.04</ele>
        <time>2015-01-11T09:49:27Z</time>
      </trkpt>
      <trkpt lat="44.56903" lon="0.92916">
        <ele>252.96</ele>
        <time>2015-01-11T09:49:36Z</time>
      </trkpt>
      <trkpt lat="44.56905" lon="0.92921">
        <ele>252.48</ele>
        <time>2015-01-11T09:49:41Z</time>
      </trkpt>
      <trkpt lat="44.56927" lon="0.92923">
        <ele>250.08</ele>
        <time>2015-01-11T09:49:50Z</time>
      </trkpt>
      <trkpt lat="44.56955" lon="0.92934">
        <ele>253.44</ele>
        <time>2015-01-11T09:50:00Z</time>
      </trkpt>
      <trkpt lat="44.5699" lon="0.92942">
        <ele>257.29</ele>
        <time>2015-01-11T09:50:11Z</time>
      </trkpt>
      <trkpt lat="44.57025" lon="0.92951">
        <ele>257.29</ele>
        <time>2015-01-11T09:50:20Z</time>
      </trkpt>
      <trkpt lat="44.57058" lon="0.92955">
        <ele>260.17</ele>
        <time>2015-01-11T09:50:30Z</time>
      </trkpt>
      <trkpt lat="44.571" lon="0.92964">
        <ele>258.25</ele>
        <time>2015-01-11T09:50:41Z</time>
      </trkpt>
      <trkpt lat="44.57134" lon="0.92942">
        <ele>257.29</ele>
        <time>2015-01-11T09:50:52Z</time>
      </trkpt>
      <trkpt lat="44.57147" lon="0.92924">
        <ele>257.77</ele>
        <time>2015-01-11T09:50:57Z</time>
      </trkpt>
      <trkpt lat="44.5718" lon="0.92904">
        <ele>256.33</ele>
        <time>2015-01-11T09:51:10Z</time>
      </trkpt>
      <trkpt lat="44.57211" lon="0.92896">
        <ele>255.85</ele>
        <time>2015-01-11T09:51:21Z</time>
      </trkpt>
      <trkpt lat="44.57249" lon="0.92896">
        <ele>253.44</ele>
        <time>2015-01-11T09:51:32Z</time>
      </trkpt>
      <trkpt lat="44.57267" lon="0.92897">
        <ele>251.04</ele>
        <time>2015-01-11T09:51:36Z</time>
      </trkpt>
      <trkpt lat="44.57294" lon="0.92892">
        <ele>248.16</ele>
        <time>2015-01-11T09:51:42Z</time>
      </trkpt>
      <trkpt lat="44.57312" lon="0.92879">
        <ele>246.23</ele>
        <time>2015-01-11T09:51:46Z</time>
      </trkpt>
      <trkpt lat="44.5732" lon="0.9287">
        <ele>245.27</ele>
        <time>2015-01-11T09:51:48Z</time>
      </trkpt>
      <trkpt lat="44.5733" lon="0.92859">
        <ele>244.31</ele>
        <time>2015-01-11T09:51:51Z</time>
      </trkpt>
      <trkpt lat="44.57352" lon="0.92847">
        <ele>242.87</ele>
        <time>2015-01-11T09:51:56Z</time>
      </trkpt>
      <trkpt lat="44.57372" lon="0.92844">
        <ele>243.35</ele>
        <time>2015-01-11T09:52:01Z</time>
      </trkpt>
      <trkpt lat="44.57414" lon="0.92846">
        <ele>248.64</ele>
        <time>2015-01-11T09:52:12Z</time>
      </trkpt>
      <trkpt lat="44.5744" lon="0.9285">
        <ele>250.08</ele>
        <time>2015-01-11T09:52:19Z</time>
      </trkpt>
      <trkpt lat="44.57456" lon="0.92894">
        <ele>248.16</ele>
        <time>2015-01-11T09:52:29Z</time>
      </trkpt>
      <trkpt lat="44.57477" lon="0.92937">
        <ele>245.75</ele>
        <time>2015-01-11T09:52:39Z</time>
      </trkpt>
      <trkpt lat="44.57486" lon="0.92945">
        <ele>244.79</ele>
        <time>2015-01-11T09:52:48Z</time>
      </trkpt>
      <trkpt lat="44.57488" lon="0.92945">
        <ele>243.83</ele>
        <time>2015-01-11T09:53:12Z</time>
      </trkpt>
      <trkpt lat="44.57488" lon="0.92948">
        <ele>244.31</ele>
        <time>2015-01-11T09:53:35Z</time>
      </trkpt>
      <trkpt lat="44.57498" lon="0.92946">
        <ele>240.95</ele>
        <time>2015-01-11T09:54:02Z</time>
      </trkpt>
      <trkpt lat="44.57514" lon="0.92908">
        <ele>237.58</ele>
        <time>2015-01-11T09:54:10Z</time>
      </trkpt>
      <trkpt lat="44.57523" lon="0.92875">
        <ele>235.66</ele>
        <time>2015-01-11T09:54:15Z</time>
      </trkpt>
      <trkpt lat="44.57535" lon="0.92851">
        <ele>234.7</ele>
        <time>2015-01-11T09:54:19Z</time>
      </trkpt>
      <trkpt lat="44.57587" lon="0.92818">
        <ele>236.62</ele>
        <time>2015-01-11T09:54:31Z</time>
      </trkpt>
      <trkpt lat="44.57605" lon="0.92811">
        <ele>239.02</ele>
        <time>2015-01-11T09:54:35Z</time>
      </trkpt>
      <trkpt lat="44.57613" lon="0.92808">
        <ele>240.47</ele>
        <time>2015-01-11T09:54:37Z</time>
      </trkpt>
      <trkpt lat="44.57676" lon="0.92785">
        <ele>250.08</ele>
        <time>2015-01-11T09:54:54Z</time>
      </trkpt>
      <trkpt lat="44.57725" lon="0.9277">
        <ele>255.37</ele>
        <time>2015-01-11T09:55:08Z</time>
      </trkpt>
      <trkpt lat="44.57759" lon="0.9275">
        <ele>258.73</ele>
        <time>2015-01-11T09:55:20Z</time>
      </trkpt>
      <trkpt lat="44.57792" lon="0.92724">
        <ele>258.73</ele>
        <time>2015-01-11T09:55:35Z</time>
      </trkpt>
      <trkpt lat="44.57826" lon="0.92697">
        <ele>262.58</ele>
        <time>2015-01-11T09:55:47Z</time>
      </trkpt>
      <trkpt lat="44.57882" lon="0.92652">
        <ele>261.62</ele>
        <time>2015-01-11T09:56:01Z</time>
      </trkpt>
      <trkpt lat="44.57934" lon="0.92613">
        <ele>264.5</ele>
        <time>2015-01-11T09:56:14Z</time>
      </trkpt>
      <trkpt lat="44.57981" lon="0.92586">
        <ele>269.31</ele>
        <time>2015-01-11T09:56:26Z</time>
      </trkpt>
      <trkpt lat="44.58045" lon="0.92537">
        <ele>260.17</ele>
        <time>2015-01-11T09:56:41Z</time>
      </trkpt>
      <trkpt lat="44.58071" lon="0.92524">
        <ele>258.25</ele>
        <time>2015-01-11T09:56:45Z</time>
      </trkpt>
      <trkpt lat="44.58154" lon="0.92514">
        <ele>253.44</ele>
        <time>2015-01-11T09:56:58Z</time>
      </trkpt>
      <trkpt lat="44.58221" lon="0.92506">
        <ele>252.48</ele>
        <time>2015-01-11T09:57:09Z</time>
      </trkpt>
      <trkpt lat="44.58289" lon="0.92482">
        <ele>251.04</ele>
        <time>2015-01-11T09:57:22Z</time>
      </trkpt>
      <trkpt lat="44.58298" lon="0.92476">
        <ele>250.56</ele>
        <time>2015-01-11T09:57:24Z</time>
      </trkpt>
      <trkpt lat="44.58308" lon="0.92472">
        <ele>250.08</ele>
        <time>2015-01-11T09:57:26Z</time>
      </trkpt>
      <trkpt lat="44.58382" lon="0.92474">
        <ele>248.64</ele>
        <time>2015-01-11T09:57:42Z</time>
      </trkpt>
      <trkpt lat="44.58407" lon="0.92476">
        <ele>247.2</ele>
        <time>2015-01-11T09:57:48Z</time>
      </trkpt>
      <trkpt lat="44.58412" lon="0.92463">
        <ele>247.2</ele>
        <time>2015-01-11T09:57:52Z</time>
      </trkpt>
      <trkpt lat="44.58413" lon="0.9243">
        <ele>245.27</ele>
        <time>2015-01-11T09:57:59Z</time>
      </trkpt>
      <trkpt lat="44.58417" lon="0.92401">
        <ele>243.35</ele>
        <time>2015-01-11T09:58:04Z</time>
      </trkpt>
      <trkpt lat="44.58419" lon="0.92375">
        <ele>239.99</ele>
        <time>2015-01-11T09:58:08Z</time>
      </trkpt>
      <trkpt lat="44.58404" lon="0.92349">
        <ele>236.14</ele>
        <time>2015-01-11T09:58:17Z</time>
      </trkpt>
      <trkpt lat="44.58406" lon="0.92343">
        <ele>236.14</ele>
        <time>2015-01-11T09:58:19Z</time>
      </trkpt>
      <trkpt lat="44.58428" lon="0.923">
        <ele>238.06</ele>
        <time>2015-01-11T09:58:33Z</time>
      </trkpt>
      <trkpt lat="44.58447" lon="0.92272">
        <ele>242.39</ele>
        <time>2015-01-11T09:58:43Z</time>
      </trkpt>
      <trkpt lat="44.58482" lon="0.92237">
        <ele>247.68</ele>
        <time>2015-01-11T09:58:57Z</time>
      </trkpt>
      <trkpt lat="44.58508" lon="0.92216">
        <ele>249.12</ele>
        <time>2015-01-11T09:59:10Z</time>
      </trkpt>
      <trkpt lat="44.58537" lon="0.92192">
        <ele>249.12</ele>
        <time>2015-01-11T09:59:25Z</time>
      </trkpt>
      <trkpt lat="44.58571" lon="0.92162">
        <ele>247.68</ele>
        <time>2015-01-11T09:59:41Z</time>
      </trkpt>
      <trkpt lat="44.58579" lon="0.92157">
        <ele>247.68</ele>
        <time>2015-01-11T09:59:45Z</time>
      </trkpt>
      <trkpt lat="44.5857" lon="0.9214">
        <ele>246.23</ele>
        <time>2015-01-11T09:59:59Z</time>
      </trkpt>
      <trkpt lat="44.58569" lon="0.92137">
        <ele>246.23</ele>
        <time>2015-01-11T10:00:14Z</time>
      </trkpt>
      <trkpt lat="44.58568" lon="0.92135">
        <ele>245.75</ele>
        <time>2015-01-11T10:00:21Z</time>
      </trkpt>
      <trkpt lat="44.58566" lon="0.9213">
        <ele>245.27</ele>
        <time>2015-01-11T10:00:25Z</time>
      </trkpt>
      <trkpt lat="44.58563" lon="0.92125">
        <ele>244.79</ele>
        <time>2015-01-11T10:00:28Z</time>
      </trkpt>
      <trkpt lat="44.58557" lon="0.92115">
        <ele>244.79</ele>
        <time>2015-01-11T10:00:33Z</time>
      </trkpt>
      <trkpt lat="44.58524" lon="0.92066">
        <ele>243.83</ele>
        <time>2015-01-11T10:00:51Z</time>
      </trkpt>
      <trkpt lat="44.58468" lon="0.92033">
        <ele>242.87</ele>
        <time>2015-01-11T10:01:06Z</time>
      </trkpt>
      <trkpt lat="44.58397" lon="0.91983">
        <ele>240.95</ele>
        <time>2015-01-11T10:01:23Z</time>
      </trkpt>
      <trkpt lat="44.58387" lon="0.91971">
        <ele>240.95</ele>
        <time>2015-01-11T10:01:26Z</time>
      </trkpt>
      <trkpt lat="44.58359" lon="0.91893">
        <ele>241.43</ele>
        <time>2015-01-11T10:01:41Z</time>
      </trkpt>
      <trkpt lat="44.58346" lon="0.91848">
        <ele>241.43</ele>
        <time>2015-01-11T10:01:49Z</time>
      </trkpt>
      <trkpt lat="44.58299" lon="0.9178">
        <ele>241.43</ele>
        <time>2015-01-11T10:02:04Z</time>
      </trkpt>
      <trkpt lat="44.58239" lon="0.91703">
        <ele>241.91</ele>
        <time>2015-01-11T10:02:21Z</time>
      </trkpt>
      <trkpt lat="44.58214" lon="0.91676">
        <ele>242.87</ele>
        <time>2015-01-11T10:02:28Z</time>
      </trkpt>
      <trkpt lat="44.58183" lon="0.91615">
        <ele>242.87</ele>
        <time>2015-01-11T10:02:40Z</time>
      </trkpt>
      <trkpt lat="44.5813" lon="0.91526">
        <ele>238.54</ele>
        <time>2015-01-11T10:02:55Z</time>
      </trkpt>
      <trkpt lat="44.5811" lon="0.91475">
        <ele>235.66</ele>
        <time>2015-01-11T10:03:01Z</time>
      </trkpt>
      <trkpt lat="44.58107" lon="0.91446">
        <ele>233.74</ele>
        <time>2015-01-11T10:03:05Z</time>
      </trkpt>
      <trkpt lat="44.58123" lon="0.91387">
        <ele>233.26</ele>
        <time>2015-01-11T10:03:14Z</time>
      </trkpt>
      <trkpt lat="44.58125" lon="0.91376">
        <ele>233.26</ele>
        <time>2015-01-11T10:03:16Z</time>
      </trkpt>
      <trkpt lat="44.58126" lon="0.91327">
        <ele>229.89</ele>
        <time>2015-01-11T10:03:24Z</time>
      </trkpt>
      <trkpt lat="44.58129" lon="0.91265">
        <ele>226.05</ele>
        <time>2015-01-11T10:03:34Z</time>
      </trkpt>
      <trkpt lat="44.58128" lon="0.91252">
        <ele>226.05</ele>
        <time>2015-01-11T10:03:36Z</time>
      </trkpt>
      <trkpt lat="44.5813" lon="0.91206">
        <ele>226.05</ele>
        <time>2015-01-11T10:03:43Z</time>
      </trkpt>
      <trkpt lat="44.58131" lon="0.91153">
        <ele>224.12</ele>
        <time>2015-01-11T10:03:51Z</time>
      </trkpt>
      <trkpt lat="44.58131" lon="0.91122">
        <ele>223.16</ele>
        <time>2015-01-11T10:03:56Z</time>
      </trkpt>
      <trkpt lat="44.58125" lon="0.91088">
        <ele>222.2</ele>
        <time>2015-01-11T10:04:01Z</time>
      </trkpt>
      <trkpt lat="44.58131" lon="0.91054">
        <ele>218.36</ele>
        <time>2015-01-11T10:04:06Z</time>
      </trkpt>
      <trkpt lat="44.58131" lon="0.91023">
        <ele>211.15</ele>
        <time>2015-01-11T10:04:13Z</time>
      </trkpt>
      <trkpt lat="44.58128" lon="0.91">
        <ele>207.78</ele>
        <time>2015-01-11T10:04:18Z</time>
      </trkpt>
      <trkpt lat="44.5813" lon="0.90985">
        <ele>206.82</ele>
        <time>2015-01-11T10:04:20Z</time>
      </trkpt>
      <trkpt lat="44.58142" lon="0.90892">
        <ele>196.25</ele>
        <time>2015-01-11T10:04:31Z</time>
      </trkpt>
      <trkpt lat="44.58142" lon="0.90877">
        <ele>194.32</ele>
        <time>2015-01-11T10:04:33Z</time>
      </trkpt>
      <trkpt lat="44.58143" lon="0.90846">
        <ele>190.48</ele>
        <time>2015-01-11T10:04:37Z</time>
      </trkpt>
      <trkpt lat="44.58148" lon="0.90818">
        <ele>186.15</ele>
        <time>2015-01-11T10:04:41Z</time>
      </trkpt>
      <trkpt lat="44.58148" lon="0.90794">
        <ele>183.27</ele>
        <time>2015-01-11T10:04:44Z</time>
      </trkpt>
      <trkpt lat="44.58148" lon="0.90777">
        <ele>181.83</ele>
        <time>2015-01-11T10:04:46Z</time>
      </trkpt>
      <trkpt lat="44.5814" lon="0.90749">
        <ele>179.9</ele>
        <time>2015-01-11T10:04:51Z</time>
      </trkpt>
      <trkpt lat="44.5814" lon="0.90738">
        <ele>178.94</ele>
        <time>2015-01-11T10:04:53Z</time>
      </trkpt>
      <trkpt lat="44.58148" lon="0.90722">
        <ele>177.5</ele>
        <time>2015-01-11T10:04:57Z</time>
      </trkpt>
      <trkpt lat="44.58155" lon="0.90706">
        <ele>176.54</ele>
        <time>2015-01-11T10:05:00Z</time>
      </trkpt>
      <trkpt lat="44.58173" lon="0.90671">
        <ele>173.66</ele>
        <time>2015-01-11T10:05:08Z</time>
      </trkpt>
      <trkpt lat="44.58177" lon="0.90659">
        <ele>177.02</ele>
        <time>2015-01-11T10:05:16Z</time>
      </trkpt>
      <trkpt lat="44.58177" lon="0.90658">
        <ele>181.35</ele>
        <time>2015-01-11T10:05:34Z</time>
      </trkpt>
      <trkpt lat="44.58176" lon="0.90659">
        <ele>183.75</ele>
        <time>2015-01-11T10:05:51Z</time>
      </trkpt>
      <trkpt lat="44.58178" lon="0.90658">
        <ele>186.63</ele>
        <time>2015-01-11T10:06:15Z</time>
      </trkpt>
      <trkpt lat="44.5819" lon="0.90651">
        <ele>188.08</ele>
        <time>2015-01-11T10:06:32Z</time>
      </trkpt>
      <trkpt lat="44.58223" lon="0.90611">
        <ele>188.56</ele>
        <time>2015-01-11T10:06:47Z</time>
      </trkpt>
      <trkpt lat="44.58252" lon="0.90551">
        <ele>188.08</ele>
        <time>2015-01-11T10:07:02Z</time>
      </trkpt>
      <trkpt lat="44.58278" lon="0.90486">
        <ele>188.56</ele>
        <time>2015-01-11T10:07:17Z</time>
      </trkpt>
      <trkpt lat="44.58278" lon="0.90449">
        <ele>189.52</ele>
        <time>2015-01-11T10:07:28Z</time>
      </trkpt>
      <trkpt lat="44.58269" lon="0.90417">
        <ele>193.84</ele>
        <time>2015-01-11T10:07:40Z</time>
      </trkpt>
      <trkpt lat="44.58261" lon="0.90389">
        <ele>196.25</ele>
        <time>2015-01-11T10:07:49Z</time>
      </trkpt>
      <trkpt lat="44.58269" lon="0.90365">
        <ele>197.69</ele>
        <time>2015-01-11T10:07:58Z</time>
      </trkpt>
      <trkpt lat="44.58274" lon="0.90361">
        <ele>199.13</ele>
        <time>2015-01-11T10:08:01Z</time>
      </trkpt>
      <trkpt lat="44.58287" lon="0.90376">
        <ele>205.86</ele>
        <time>2015-01-11T10:08:12Z</time>
      </trkpt>
      <trkpt lat="44.58304" lon="0.90384">
        <ele>206.82</ele>
        <time>2015-01-11T10:08:22Z</time>
      </trkpt>
      <trkpt lat="44.58322" lon="0.90356">
        <ele>210.67</ele>
        <time>2015-01-11T10:08:37Z</time>
      </trkpt>
      <trkpt lat="44.58334" lon="0.90308">
        <ele>213.07</ele>
        <time>2015-01-11T10:08:54Z</time>
      </trkpt>
      <trkpt lat="44.58343" lon="0.90265">
        <ele>217.4</ele>
        <time>2015-01-11T10:09:10Z</time>
      </trkpt>
      <trkpt lat="44.58352" lon="0.9022">
        <ele>220.28</ele>
        <time>2015-01-11T10:09:27Z</time>
      </trkpt>
      <trkpt lat="44.58359" lon="0.90171">
        <ele>223.64</ele>
        <time>2015-01-11T10:09:44Z</time>
      </trkpt>
      <trkpt lat="44.58374" lon="0.90112">
        <ele>226.53</ele>
        <time>2015-01-11T10:10:02Z</time>
      </trkpt>
      <trkpt lat="44.58391" lon="0.90041">
        <ele>222.68</ele>
        <time>2015-01-11T10:10:14Z</time>
      </trkpt>
      <trkpt lat="44.58393" lon="0.90033">
        <ele>222.68</ele>
        <time>2015-01-11T10:10:15Z</time>
      </trkpt>
      <trkpt lat="44.58392" lon="0.89949">
        <ele>221.24</ele>
        <time>2015-01-11T10:10:26Z</time>
      </trkpt>
      <trkpt lat="44.58383" lon="0.89865">
        <ele>221.24</ele>
        <time>2015-01-11T10:10:41Z</time>
      </trkpt>
      <trkpt lat="44.58394" lon="0.8982">
        <ele>222.68</ele>
        <time>2015-01-11T10:10:51Z</time>
      </trkpt>
      <trkpt lat="44.58413" lon="0.8976">
        <ele>222.2</ele>
        <time>2015-01-11T10:11:04Z</time>
      </trkpt>
      <trkpt lat="44.58435" lon="0.89648">
        <ele>220.76</ele>
        <time>2015-01-11T10:11:23Z</time>
      </trkpt>
      <trkpt lat="44.58433" lon="0.89607">
        <ele>221.24</ele>
        <time>2015-01-11T10:11:30Z</time>
      </trkpt>
      <trkpt lat="44.58431" lon="0.895">
        <ele>219.32</ele>
        <time>2015-01-11T10:11:47Z</time>
      </trkpt>
      <trkpt lat="44.58431" lon="0.89492">
        <ele>218.84</ele>
        <time>2015-01-11T10:11:48Z</time>
      </trkpt>
      <trkpt lat="44.58428" lon="0.89423">
        <ele>215.47</ele>
        <time>2015-01-11T10:11:56Z</time>
      </trkpt>
      <trkpt lat="44.58435" lon="0.89385">
        <ele>213.07</ele>
        <time>2015-01-11T10:12:00Z</time>
      </trkpt>
      <trkpt lat="44.5847" lon="0.89318">
        <ele>208.74</ele>
        <time>2015-01-11T10:12:09Z</time>
      </trkpt>
      <trkpt lat="44.58483" lon="0.89292">
        <ele>205.86</ele>
        <time>2015-01-11T10:12:13Z</time>
      </trkpt>
      <trkpt lat="44.5849" lon="0.8927">
        <ele>202.98</ele>
        <time>2015-01-11T10:12:17Z</time>
      </trkpt>
      <trkpt lat="44.58504" lon="0.89281">
        <ele>204.42</ele>
        <time>2015-01-11T10:12:26Z</time>
      </trkpt>
      <trkpt lat="44.58509" lon="0.89287">
        <ele>207.78</ele>
        <time>2015-01-11T10:12:29Z</time>
      </trkpt>
      <trkpt lat="44.58536" lon="0.89282">
        <ele>213.55</ele>
        <time>2015-01-11T10:12:41Z</time>
      </trkpt>
      <trkpt lat="44.58576" lon="0.89259">
        <ele>215.47</ele>
        <time>2015-01-11T10:12:52Z</time>
      </trkpt>
      <trkpt lat="44.58579" lon="0.89256">
        <ele>215.47</ele>
        <time>2015-01-11T10:12:53Z</time>
      </trkpt>
      <trkpt lat="44.58598" lon="0.89253">
        <ele>215.47</ele>
        <time>2015-01-11T10:12:58Z</time>
      </trkpt>
      <trkpt lat="44.58616" lon="0.89255">
        <ele>215.47</ele>
        <time>2015-01-11T10:13:02Z</time>
      </trkpt>
      <trkpt lat="44.58641" lon="0.89268">
        <ele>213.55</ele>
        <time>2015-01-11T10:13:08Z</time>
      </trkpt>
      <trkpt lat="44.58665" lon="0.89271">
        <ele>209.7</ele>
        <time>2015-01-11T10:13:16Z</time>
      </trkpt>
      <trkpt lat="44.58669" lon="0.89268">
        <ele>209.22</ele>
        <time>2015-01-11T10:13:18Z</time>
      </trkpt>
      <trkpt lat="44.58688" lon="0.89247">
        <ele>204.9</ele>
        <time>2015-01-11T10:13:29Z</time>
      </trkpt>
      <trkpt lat="44.58688" lon="0.89248">
        <ele>202.49</ele>
        <time>2015-01-11T10:13:48Z</time>
      </trkpt>
      <trkpt lat="44.58687" lon="0.89248">
        <ele>202.49</ele>
        <time>2015-01-11T10:13:50Z</time>
      </trkpt>
      <trkpt lat="44.58676" lon="0.8927">
        <ele>199.61</ele>
        <time>2015-01-11T10:14:08Z</time>
      </trkpt>
      <trkpt lat="44.5867" lon="0.89278">
        <ele>199.13</ele>
        <time>2015-01-11T10:14:16Z</time>
      </trkpt>
      <trkpt lat="44.58674" lon="0.89259">
        <ele>197.69</ele>
        <time>2015-01-11T10:14:28Z</time>
      </trkpt>
      <trkpt lat="44.58681" lon="0.89242">
        <ele>199.61</ele>
        <time>2015-01-11T10:14:39Z</time>
      </trkpt>
      <trkpt lat="44.58693" lon="0.89216">
        <ele>198.65</ele>
        <time>2015-01-11T10:14:50Z</time>
      </trkpt>
      <trkpt lat="44.58699" lon="0.89186">
        <ele>197.21</ele>
        <time>2015-01-11T10:15:02Z</time>
      </trkpt>
      <trkpt lat="44.58698" lon="0.89182">
        <ele>197.21</ele>
        <time>2015-01-11T10:15:04Z</time>
      </trkpt>
      <trkpt lat="44.5871" lon="0.89166">
        <ele>196.73</ele>
        <time>2015-01-11T10:15:13Z</time>
      </trkpt>
      <trkpt lat="44.58714" lon="0.89158">
        <ele>195.77</ele>
        <time>2015-01-11T10:15:23Z</time>
      </trkpt>
      <trkpt lat="44.58718" lon="0.89152">
        <ele>195.77</ele>
        <time>2015-01-11T10:15:48Z</time>
      </trkpt>
      <trkpt lat="44.58734" lon="0.89112">
        <ele>191.44</ele>
        <time>2015-01-11T10:15:58Z</time>
      </trkpt>
      <trkpt lat="44.5874" lon="0.89096">
        <ele>190.48</ele>
        <time>2015-01-11T10:16:01Z</time>
      </trkpt>
      <trkpt lat="44.58749" lon="0.89074">
        <ele>189.52</ele>
        <time>2015-01-11T10:16:05Z</time>
      </trkpt>
      <trkpt lat="44.58755" lon="0.89064">
        <ele>189.04</ele>
        <time>2015-01-11T10:16:07Z</time>
      </trkpt>
      <trkpt lat="44.58762" lon="0.8904">
        <ele>189.52</ele>
        <time>2015-01-11T10:16:11Z</time>
      </trkpt>
      <trkpt lat="44.58761" lon="0.8901">
        <ele>189.52</ele>
        <time>2015-01-11T10:16:16Z</time>
      </trkpt>
      <trkpt lat="44.58761" lon="0.88937">
        <ele>183.27</ele>
        <time>2015-01-11T10:16:24Z</time>
      </trkpt>
      <trkpt lat="44.58754" lon="0.88904">
        <ele>180.38</ele>
        <time>2015-01-11T10:16:28Z</time>
      </trkpt>
      <trkpt lat="44.58746" lon="0.88871">
        <ele>178.94</ele>
        <time>2015-01-11T10:16:32Z</time>
      </trkpt>
      <trkpt lat="44.58742" lon="0.88849">
        <ele>178.46</ele>
        <time>2015-01-11T10:16:35Z</time>
      </trkpt>
      <trkpt lat="44.58706" lon="0.88788">
        <ele>176.54</ele>
        <time>2015-01-11T10:16:46Z</time>
      </trkpt>
      <trkpt lat="44.587" lon="0.88776">
        <ele>175.58</ele>
        <time>2015-01-11T10:16:48Z</time>
      </trkpt>
      <trkpt lat="44.58692" lon="0.88754">
        <ele>174.62</ele>
        <time>2015-01-11T10:16:51Z</time>
      </trkpt>
      <trkpt lat="44.58687" lon="0.88729">
        <ele>173.17</ele>
        <time>2015-01-11T10:16:54Z</time>
      </trkpt>
      <trkpt lat="44.58692" lon="0.8868">
        <ele>173.17</ele>
        <time>2015-01-11T10:17:04Z</time>
      </trkpt>
      <trkpt lat="44.587" lon="0.8866">
        <ele>173.17</ele>
        <time>2015-01-11T10:17:12Z</time>
      </trkpt>
      <trkpt lat="44.58713" lon="0.88651">
        <ele>171.73</ele>
        <time>2015-01-11T10:17:18Z</time>
      </trkpt>
      <trkpt lat="44.58744" lon="0.88618">
        <ele>166.93</ele>
        <time>2015-01-11T10:17:26Z</time>
      </trkpt>
      <trkpt lat="44.58753" lon="0.88601">
        <ele>165.48</ele>
        <time>2015-01-11T10:17:29Z</time>
      </trkpt>
      <trkpt lat="44.5876" lon="0.88586">
        <ele>165</ele>
        <time>2015-01-11T10:17:31Z</time>
      </trkpt>
      <trkpt lat="44.58768" lon="0.88571">
        <ele>164.04</ele>
        <time>2015-01-11T10:17:33Z</time>
      </trkpt>
      <trkpt lat="44.58797" lon="0.88529">
        <ele>161.16</ele>
        <time>2015-01-11T10:17:39Z</time>
      </trkpt>
      <trkpt lat="44.58812" lon="0.88491">
        <ele>157.79</ele>
        <time>2015-01-11T10:17:46Z</time>
      </trkpt>
      <trkpt lat="44.58813" lon="0.88477">
        <ele>156.35</ele>
        <time>2015-01-11T10:17:49Z</time>
      </trkpt>
      <trkpt lat="44.58846" lon="0.88389">
        <ele>154.91</ele>
        <time>2015-01-11T10:18:01Z</time>
      </trkpt>
      <trkpt lat="44.58891" lon="0.88333">
        <ele>149.14</ele>
        <time>2015-01-11T10:18:10Z</time>
      </trkpt>
      <trkpt lat="44.58911" lon="0.88296">
        <ele>147.7</ele>
        <time>2015-01-11T10:18:16Z</time>
      </trkpt>
      <trkpt lat="44.58927" lon="0.88278">
        <ele>148.18</ele>
        <time>2015-01-11T10:18:20Z</time>
      </trkpt>
      <trkpt lat="44.58981" lon="0.88261">
        <ele>152.03</ele>
        <time>2015-01-11T10:18:35Z</time>
      </trkpt>
      <trkpt lat="44.59014" lon="0.88254">
        <ele>156.83</ele>
        <time>2015-01-11T10:18:48Z</time>
      </trkpt>
      <trkpt lat="44.59025" lon="0.88227">
        <ele>160.2</ele>
        <time>2015-01-11T10:19:00Z</time>
      </trkpt>
      <trkpt lat="44.59009" lon="0.88194">
        <ele>164.04</ele>
        <time>2015-01-11T10:19:15Z</time>
      </trkpt>
      <trkpt lat="44.58991" lon="0.88174">
        <ele>164.52</ele>
        <time>2015-01-11T10:19:25Z</time>
      </trkpt>
      <trkpt lat="44.59" lon="0.88154">
        <ele>166.45</ele>
        <time>2015-01-11T10:19:34Z</time>
      </trkpt>
      <trkpt lat="44.59028" lon="0.88129">
        <ele>172.21</ele>
        <time>2015-01-11T10:19:51Z</time>
      </trkpt>
      <trkpt lat="44.59051" lon="0.88135">
        <ele>173.17</ele>
        <time>2015-01-11T10:20:01Z</time>
      </trkpt>
      <trkpt lat="44.59073" lon="0.88155">
        <ele>172.69</ele>
        <time>2015-01-11T10:20:10Z</time>
      </trkpt>
      <trkpt lat="44.59104" lon="0.88142">
        <ele>173.17</ele>
        <time>2015-01-11T10:20:23Z</time>
      </trkpt>
      <trkpt lat="44.59122" lon="0.88119">
        <ele>174.62</ele>
        <time>2015-01-11T10:20:36Z</time>
      </trkpt>
      <trkpt lat="44.59135" lon="0.88092">
        <ele>178.46</ele>
        <time>2015-01-11T10:20:49Z</time>
      </trkpt>
      <trkpt lat="44.5915" lon="0.88062">
        <ele>180.87</ele>
        <time>2015-01-11T10:21:03Z</time>
      </trkpt>
      <trkpt lat="44.59168" lon="0.88036">
        <ele>181.83</ele>
        <time>2015-01-11T10:21:16Z</time>
      </trkpt>
      <trkpt lat="44.59188" lon="0.8801">
        <ele>185.19</ele>
        <time>2015-01-11T10:21:31Z</time>
      </trkpt>
      <trkpt lat="44.59206" lon="0.87985">
        <ele>188.56</ele>
        <time>2015-01-11T10:21:43Z</time>
      </trkpt>
      <trkpt lat="44.59228" lon="0.87955">
        <ele>189.52</ele>
        <time>2015-01-11T10:21:56Z</time>
      </trkpt>
      <trkpt lat="44.59245" lon="0.87923">
        <ele>189.52</ele>
        <time>2015-01-11T10:22:09Z</time>
      </trkpt>
      <trkpt lat="44.59266" lon="0.87896">
        <ele>192.88</ele>
        <time>2015-01-11T10:22:24Z</time>
      </trkpt>
      <trkpt lat="44.59284" lon="0.87878">
        <ele>195.28</ele>
        <time>2015-01-11T10:22:36Z</time>
      </trkpt>
      <trkpt lat="44.59306" lon="0.87857">
        <ele>196.25</ele>
        <time>2015-01-11T10:22:50Z</time>
      </trkpt>
      <trkpt lat="44.59318" lon="0.87848">
        <ele>197.21</ele>
        <time>2015-01-11T10:22:58Z</time>
      </trkpt>
      <trkpt lat="44.59322" lon="0.87843">
        <ele>197.69</ele>
        <time>2015-01-11T10:23:12Z</time>
      </trkpt>
      <trkpt lat="44.59325" lon="0.87843">
        <ele>201.05</ele>
        <time>2015-01-11T10:23:39Z</time>
      </trkpt>
      <trkpt lat="44.59325" lon="0.87844">
        <ele>203.46</ele>
        <time>2015-01-11T10:24:13Z</time>
      </trkpt>
      <trkpt lat="44.59325" lon="0.87844">
        <ele>203.46</ele>
        <time>2015-01-11T10:24:40Z</time>
      </trkpt>
      <trkpt lat="44.59336" lon="0.87839">
        <ele>204.42</ele>
        <time>2015-01-11T10:25:01Z</time>
      </trkpt>
      <trkpt lat="44.59373" lon="0.87816">
        <ele>204.9</ele>
        <time>2015-01-11T10:25:14Z</time>
      </trkpt>
      <trkpt lat="44.59379" lon="0.87813">
        <ele>204.9</ele>
        <time>2015-01-11T10:25:16Z</time>
      </trkpt>
      <trkpt lat="44.59407" lon="0.87831">
        <ele>206.34</ele>
        <time>2015-01-11T10:25:24Z</time>
      </trkpt>
      <trkpt lat="44.59445" lon="0.87834">
        <ele>209.22</ele>
        <time>2015-01-11T10:25:34Z</time>
      </trkpt>
      <trkpt lat="44.59478" lon="0.87838">
        <ele>209.22</ele>
        <time>2015-01-11T10:25:41Z</time>
      </trkpt>
      <trkpt lat="44.59501" lon="0.87849">
        <ele>211.15</ele>
        <time>2015-01-11T10:25:46Z</time>
      </trkpt>
      <trkpt lat="44.59519" lon="0.87862">
        <ele>213.07</ele>
        <time>2015-01-11T10:25:50Z</time>
      </trkpt>
      <trkpt lat="44.59535" lon="0.87867">
        <ele>214.03</ele>
        <time>2015-01-11T10:25:54Z</time>
      </trkpt>
      <trkpt lat="44.59559" lon="0.87841">
        <ele>214.51</ele>
        <time>2015-01-11T10:26:03Z</time>
      </trkpt>
      <trkpt lat="44.59564" lon="0.87838">
        <ele>214.99</ele>
        <time>2015-01-11T10:26:05Z</time>
      </trkpt>
      <trkpt lat="44.59573" lon="0.8784">
        <ele>218.36</ele>
        <time>2015-01-11T10:26:09Z</time>
      </trkpt>
      <trkpt lat="44.59611" lon="0.87859">
        <ele>223.16</ele>
        <time>2015-01-11T10:26:20Z</time>
      </trkpt>
      <trkpt lat="44.5965" lon="0.8786">
        <ele>221.72</ele>
        <time>2015-01-11T10:26:32Z</time>
      </trkpt>
      <trkpt lat="44.59674" lon="0.87831">
        <ele>219.8</ele>
        <time>2015-01-11T10:26:42Z</time>
      </trkpt>
      <trkpt lat="44.59696" lon="0.87812">
        <ele>220.76</ele>
        <time>2015-01-11T10:26:52Z</time>
      </trkpt>
      <trkpt lat="44.59708" lon="0.87809">
        <ele>218.84</ele>
        <time>2015-01-11T10:27:04Z</time>
      </trkpt>
      <trkpt lat="44.59712" lon="0.87807">
        <ele>216.91</ele>
        <time>2015-01-11T10:27:35Z</time>
      </trkpt>
      <trkpt lat="44.59714" lon="0.87806">
        <ele>216.91</ele>
        <time>2015-01-11T10:27:48Z</time>
      </trkpt>
      <trkpt lat="44.59735" lon="0.87802">
        <ele>215.47</ele>
        <time>2015-01-11T10:27:59Z</time>
      </trkpt>
      <trkpt lat="44.59755" lon="0.87801">
        <ele>215.95</ele>
        <time>2015-01-11T10:28:05Z</time>
      </trkpt>
      <trkpt lat="44.59793" lon="0.87809">
        <ele>219.32</ele>
        <time>2015-01-11T10:28:12Z</time>
      </trkpt>
      <trkpt lat="44.59806" lon="0.87808">
        <ele>219.8</ele>
        <time>2015-01-11T10:28:14Z</time>
      </trkpt>
      <trkpt lat="44.59851" lon="0.87826">
        <ele>220.28</ele>
        <time>2015-01-11T10:28:21Z</time>
      </trkpt>
      <trkpt lat="44.59882" lon="0.87832">
        <ele>218.84</ele>
        <time>2015-01-11T10:28:25Z</time>
      </trkpt>
      <trkpt lat="44.59936" lon="0.87818">
        <ele>213.07</ele>
        <time>2015-01-11T10:28:34Z</time>
      </trkpt>
      <trkpt lat="44.59942" lon="0.87819">
        <ele>211.63</ele>
        <time>2015-01-11T10:28:36Z</time>
      </trkpt>
      <trkpt lat="44.59952" lon="0.87814">
        <ele>208.26</ele>
        <time>2015-01-11T10:28:40Z</time>
      </trkpt>
      <trkpt lat="44.59994" lon="0.87751">
        <ele>192.4</ele>
        <time>2015-01-11T10:28:53Z</time>
      </trkpt>
      <trkpt lat="44.60003" lon="0.87733">
        <ele>190</ele>
        <time>2015-01-11T10:28:56Z</time>
      </trkpt>
      <trkpt lat="44.60052" lon="0.87657">
        <ele>182.31</ele>
        <time>2015-01-11T10:29:08Z</time>
      </trkpt>
      <trkpt lat="44.60066" lon="0.87645">
        <ele>181.35</ele>
        <time>2015-01-11T10:29:11Z</time>
      </trkpt>
      <trkpt lat="44.60086" lon="0.87641">
        <ele>180.87</ele>
        <time>2015-01-11T10:29:15Z</time>
      </trkpt>
      <trkpt lat="44.60102" lon="0.87646">
        <ele>179.9</ele>
        <time>2015-01-11T10:29:19Z</time>
      </trkpt>
      <trkpt lat="44.60189" lon="0.87669">
        <ele>173.66</ele>
        <time>2015-01-11T10:29:34Z</time>
      </trkpt>
      <trkpt lat="44.60237" lon="0.87687">
        <ele>177.5</ele>
        <time>2015-01-11T10:29:45Z</time>
      </trkpt>
      <trkpt lat="44.60253" lon="0.87698">
        <ele>176.54</ele>
        <time>2015-01-11T10:29:49Z</time>
      </trkpt>
      <trkpt lat="44.60323" lon="0.87722">
        <ele>174.62</ele>
        <time>2015-01-11T10:30:02Z</time>
      </trkpt>
      <trkpt lat="44.60343" lon="0.87724">
        <ele>174.14</ele>
        <time>2015-01-11T10:30:05Z</time>
      </trkpt>
      <trkpt lat="44.6039" lon="0.87711">
        <ele>177.98</ele>
        <time>2015-01-11T10:30:14Z</time>
      </trkpt>
      <trkpt lat="44.60455" lon="0.87724">
        <ele>180.38</ele>
        <time>2015-01-11T10:30:28Z</time>
      </trkpt>
      <trkpt lat="44.60484" lon="0.87741">
        <ele>178.94</ele>
        <time>2015-01-11T10:30:33Z</time>
      </trkpt>
      <trkpt lat="44.60501" lon="0.87758">
        <ele>177.98</ele>
        <time>2015-01-11T10:30:36Z</time>
      </trkpt>
      <trkpt lat="44.60528" lon="0.87794">
        <ele>176.06</ele>
        <time>2015-01-11T10:30:42Z</time>
      </trkpt>
      <trkpt lat="44.60549" lon="0.87834">
        <ele>180.38</ele>
        <time>2015-01-11T10:30:50Z</time>
      </trkpt>
      <trkpt lat="44.60581" lon="0.87879">
        <ele>187.59</ele>
        <time>2015-01-11T10:31:02Z</time>
      </trkpt>
      <trkpt lat="44.60597" lon="0.87913">
        <ele>185.19</ele>
        <time>2015-01-11T10:31:13Z</time>
      </trkpt>
      <trkpt lat="44.60613" lon="0.87959">
        <ele>184.23</ele>
        <time>2015-01-11T10:31:24Z</time>
      </trkpt>
      <trkpt lat="44.6064" lon="0.88023">
        <ele>186.63</ele>
        <time>2015-01-11T10:31:39Z</time>
      </trkpt>
      <trkpt lat="44.60659" lon="0.88064">
        <ele>191.92</ele>
        <time>2015-01-11T10:31:50Z</time>
      </trkpt>
      <trkpt lat="44.60679" lon="0.88104">
        <ele>201.05</ele>
        <time>2015-01-11T10:32:00Z</time>
      </trkpt>
      <trkpt lat="44.60687" lon="0.88116">
        <ele>203.46</ele>
        <time>2015-01-11T10:32:04Z</time>
      </trkpt>
      <trkpt lat="44.6072" lon="0.88133">
        <ele>207.3</ele>
        <time>2015-01-11T10:32:16Z</time>
      </trkpt>
      <trkpt lat="44.60745" lon="0.88148">
        <ele>210.67</ele>
        <time>2015-01-11T10:32:26Z</time>
      </trkpt>
      <trkpt lat="44.60748" lon="0.88149">
        <ele>211.15</ele>
        <time>2015-01-11T10:32:27Z</time>
      </trkpt>
      <trkpt lat="44.60765" lon="0.88155">
        <ele>212.11</ele>
        <time>2015-01-11T10:32:32Z</time>
      </trkpt>
      <trkpt lat="44.60802" lon="0.88154">
        <ele>212.59</ele>
        <time>2015-01-11T10:32:43Z</time>
      </trkpt>
      <trkpt lat="44.60817" lon="0.88149">
        <ele>212.11</ele>
        <time>2015-01-11T10:32:48Z</time>
      </trkpt>
      <trkpt lat="44.60829" lon="0.8816">
        <ele>212.59</ele>
        <time>2015-01-11T10:32:53Z</time>
      </trkpt>
      <trkpt lat="44.60838" lon="0.88201">
        <ele>212.59</ele>
        <time>2015-01-11T10:33:05Z</time>
      </trkpt>
      <trkpt lat="44.60841" lon="0.88257">
        <ele>209.22</ele>
        <time>2015-01-11T10:33:18Z</time>
      </trkpt>
      <trkpt lat="44.60843" lon="0.88306">
        <ele>214.03</ele>
        <time>2015-01-11T10:33:32Z</time>
      </trkpt>
      <trkpt lat="44.60844" lon="0.88338">
        <ele>217.4</ele>
        <time>2015-01-11T10:33:42Z</time>
      </trkpt>
      <trkpt lat="44.60859" lon="0.88337">
        <ele>217.88</ele>
        <time>2015-01-11T10:33:51Z</time>
      </trkpt>
      <trkpt lat="44.60877" lon="0.88348">
        <ele>220.28</ele>
        <time>2015-01-11T10:33:59Z</time>
      </trkpt>
      <trkpt lat="44.60883" lon="0.8835">
        <ele>220.76</ele>
        <time>2015-01-11T10:34:01Z</time>
      </trkpt>
      <trkpt lat="44.60909" lon="0.88356">
        <ele>224.12</ele>
        <time>2015-01-11T10:34:08Z</time>
      </trkpt>
      <trkpt lat="44.60928" lon="0.88373">
        <ele>228.45</ele>
        <time>2015-01-11T10:34:15Z</time>
      </trkpt>
      <trkpt lat="44.6093" lon="0.88397">
        <ele>227.97</ele>
        <time>2015-01-11T10:34:22Z</time>
      </trkpt>
      <trkpt lat="44.60934" lon="0.88399">
        <ele>227.49</ele>
        <time>2015-01-11T10:34:23Z</time>
      </trkpt>
      <trkpt lat="44.60941" lon="0.88403">
        <ele>227.01</ele>
        <time>2015-01-11T10:34:25Z</time>
      </trkpt>
      <trkpt lat="44.60971" lon="0.88444">
        <ele>223.64</ele>
        <time>2015-01-11T10:34:33Z</time>
      </trkpt>
      <trkpt lat="44.60984" lon="0.88467">
        <ele>219.32</ele>
        <time>2015-01-11T10:34:36Z</time>
      </trkpt>
      <trkpt lat="44.60997" lon="0.88487">
        <ele>214.99</ele>
        <time>2015-01-11T10:34:40Z</time>
      </trkpt>
      <trkpt lat="44.60999" lon="0.88503">
        <ele>210.19</ele>
        <time>2015-01-11T10:34:44Z</time>
      </trkpt>
      <trkpt lat="44.61" lon="0.88511">
        <ele>208.26</ele>
        <time>2015-01-11T10:34:46Z</time>
      </trkpt>
      <trkpt lat="44.61005" lon="0.88517">
        <ele>202.01</ele>
        <time>2015-01-11T10:34:59Z</time>
      </trkpt>
      <trkpt lat="44.61006" lon="0.88516">
        <ele>199.61</ele>
        <time>2015-01-11T10:35:25Z</time>
      </trkpt>
      <trkpt lat="44.61007" lon="0.88515">
        <ele>196.25</ele>
        <time>2015-01-11T10:35:45Z</time>
      </trkpt>
      <trkpt lat="44.61008" lon="0.88515">
        <ele>196.73</ele>
        <time>2015-01-11T10:36:01Z</time>
      </trkpt>
      <trkpt lat="44.61014" lon="0.88524">
        <ele>196.73</ele>
        <time>2015-01-11T10:36:06Z</time>
      </trkpt>
      <trkpt lat="44.61036" lon="0.88565">
        <ele>194.8</ele>
        <time>2015-01-11T10:36:15Z</time>
      </trkpt>
      <trkpt lat="44.61039" lon="0.88634">
        <ele>190.48</ele>
        <time>2015-01-11T10:36:24Z</time>
      </trkpt>
      <trkpt lat="44.61039" lon="0.88687">
        <ele>187.59</ele>
        <time>2015-01-11T10:36:29Z</time>
      </trkpt>
      <trkpt lat="44.6103" lon="0.88732">
        <ele>184.71</ele>
        <time>2015-01-11T10:36:34Z</time>
      </trkpt>
      <trkpt lat="44.60994" lon="0.8876">
        <ele>182.31</ele>
        <time>2015-01-11T10:36:40Z</time>
      </trkpt>
      <trkpt lat="44.60973" lon="0.88776">
        <ele>182.31</ele>
        <time>2015-01-11T10:36:44Z</time>
      </trkpt>
      <trkpt lat="44.60912" lon="0.88831">
        <ele>186.15</ele>
        <time>2015-01-11T10:36:55Z</time>
      </trkpt>
      <trkpt lat="44.60894" lon="0.88844">
        <ele>186.63</ele>
        <time>2015-01-11T10:36:58Z</time>
      </trkpt>
      <trkpt lat="44.60863" lon="0.88866">
        <ele>188.08</ele>
        <time>2015-01-11T10:37:04Z</time>
      </trkpt>
      <trkpt lat="44.60852" lon="0.88874">
        <ele>188.56</ele>
        <time>2015-01-11T10:37:06Z</time>
      </trkpt>
      <trkpt lat="44.60842" lon="0.88882">
        <ele>188.56</ele>
        <time>2015-01-11T10:37:08Z</time>
      </trkpt>
      <trkpt lat="44.60774" lon="0.88923">
        <ele>186.63</ele>
        <time>2015-01-11T10:37:20Z</time>
      </trkpt>
      <trkpt lat="44.60763" lon="0.8893">
        <ele>186.15</ele>
        <time>2015-01-11T10:37:22Z</time>
      </trkpt>
      <trkpt lat="44.60734" lon="0.88946">
        <ele>184.71</ele>
        <time>2015-01-11T10:37:27Z</time>
      </trkpt>
      <trkpt lat="44.60719" lon="0.88957">
        <ele>184.71</ele>
        <time>2015-01-11T10:37:30Z</time>
      </trkpt>
      <trkpt lat="44.60658" lon="0.88982">
        <ele>184.23</ele>
        <time>2015-01-11T10:37:42Z</time>
      </trkpt>
      <trkpt lat="44.60631" lon="0.88992">
        <ele>183.27</ele>
        <time>2015-01-11T10:37:47Z</time>
      </trkpt>
      <trkpt lat="44.60547" lon="0.89022">
        <ele>181.35</ele>
        <time>2015-01-11T10:38:01Z</time>
      </trkpt>
      <trkpt lat="44.60505" lon="0.89053">
        <ele>181.35</ele>
        <time>2015-01-11T10:38:09Z</time>
      </trkpt>
      <trkpt lat="44.60491" lon="0.89061">
        <ele>181.35</ele>
        <time>2015-01-11T10:38:12Z</time>
      </trkpt>
      <trkpt lat="44.60471" lon="0.8907">
        <ele>180.87</ele>
        <time>2015-01-11T10:38:16Z</time>
      </trkpt>
      <trkpt lat="44.6045" lon="0.89082">
        <ele>179.42</ele>
        <time>2015-01-11T10:38:20Z</time>
      </trkpt>
      <trkpt lat="44.60365" lon="0.89138">
        <ele>172.69</ele>
        <time>2015-01-11T10:38:35Z</time>
      </trkpt>
      <trkpt lat="44.60333" lon="0.89161">
        <ele>171.73</ele>
        <time>2015-01-11T10:38:40Z</time>
      </trkpt>
      <trkpt lat="44.60304" lon="0.89206">
        <ele>169.81</ele>
        <time>2015-01-11T10:38:46Z</time>
      </trkpt>
      <trkpt lat="44.60281" lon="0.89229">
        <ele>169.81</ele>
        <time>2015-01-11T10:38:50Z</time>
      </trkpt>
      <trkpt lat="44.60226" lon="0.89251">
        <ele>170.77</ele>
        <time>2015-01-11T10:38:59Z</time>
      </trkpt>
      <trkpt lat="44.60217" lon="0.89256">
        <ele>171.25</ele>
        <time>2015-01-11T10:39:01Z</time>
      </trkpt>
      <trkpt lat="44.60189" lon="0.89277">
        <ele>169.33</ele>
        <time>2015-01-11T10:39:06Z</time>
      </trkpt>
      <trkpt lat="44.60178" lon="0.8929">
        <ele>168.37</ele>
        <time>2015-01-11T10:39:08Z</time>
      </trkpt>
      <trkpt lat="44.60174" lon="0.89319">
        <ele>167.89</ele>
        <time>2015-01-11T10:39:14Z</time>
      </trkpt>
      <trkpt lat="44.60202" lon="0.89362">
        <ele>169.33</ele>
        <time>2015-01-11T10:39:27Z</time>
      </trkpt>
      <trkpt lat="44.60228" lon="0.89418">
        <ele>169.81</ele>
        <time>2015-01-11T10:39:43Z</time>
      </trkpt>
      <trkpt lat="44.60253" lon="0.89465">
        <ele>169.81</ele>
        <time>2015-01-11T10:39:54Z</time>
      </trkpt>
      <trkpt lat="44.6026" lon="0.8949">
        <ele>169.81</ele>
        <time>2015-01-11T10:39:58Z</time>
      </trkpt>
      <trkpt lat="44.60265" lon="0.89592">
        <ele>167.41</ele>
        <time>2015-01-11T10:40:11Z</time>
      </trkpt>
      <trkpt lat="44.60265" lon="0.89606">
        <ele>166.93</ele>
        <time>2015-01-11T10:40:13Z</time>
      </trkpt>
      <trkpt lat="44.60263" lon="0.89636">
        <ele>165.96</ele>
        <time>2015-01-11T10:40:17Z</time>
      </trkpt>
      <trkpt lat="44.60256" lon="0.89664">
        <ele>165</ele>
        <time>2015-01-11T10:40:21Z</time>
      </trkpt>
      <trkpt lat="44.60253" lon="0.89691">
        <ele>165</ele>
        <time>2015-01-11T10:40:25Z</time>
      </trkpt>
      <trkpt lat="44.6025" lon="0.89739">
        <ele>164.04</ele>
        <time>2015-01-11T10:40:35Z</time>
      </trkpt>
      <trkpt lat="44.60263" lon="0.8976">
        <ele>164.52</ele>
        <time>2015-01-11T10:40:41Z</time>
      </trkpt>
      <trkpt lat="44.60258" lon="0.89774">
        <ele>164.04</ele>
        <time>2015-01-11T10:40:45Z</time>
      </trkpt>
      <trkpt lat="44.60212" lon="0.89831">
        <ele>162.12</ele>
        <time>2015-01-11T10:40:58Z</time>
      </trkpt>
      <trkpt lat="44.60184" lon="0.89822">
        <ele>160.2</ele>
        <time>2015-01-11T10:41:05Z</time>
      </trkpt>
      <trkpt lat="44.60166" lon="0.89824">
        <ele>159.24</ele>
        <time>2015-01-11T10:41:09Z</time>
      </trkpt>
      <trkpt lat="44.6015" lon="0.89829">
        <ele>158.75</ele>
        <time>2015-01-11T10:41:13Z</time>
      </trkpt>
      <trkpt lat="44.6014" lon="0.89807">
        <ele>160.2</ele>
        <time>2015-01-11T10:41:20Z</time>
      </trkpt>
      <trkpt lat="44.60133" lon="0.89789">
        <ele>161.64</ele>
        <time>2015-01-11T10:41:24Z</time>
      </trkpt>
      <trkpt lat="44.60115" lon="0.8977">
        <ele>165.48</ele>
        <time>2015-01-11T10:41:31Z</time>
      </trkpt>
      <trkpt lat="44.60109" lon="0.89762">
        <ele>166.45</ele>
        <time>2015-01-11T10:41:34Z</time>
      </trkpt>
      <trkpt lat="44.60127" lon="0.89724">
        <ele>168.37</ele>
        <time>2015-01-11T10:41:46Z</time>
      </trkpt>
      <trkpt lat="44.60116" lon="0.89709">
        <ele>168.85</ele>
        <time>2015-01-11T10:41:52Z</time>
      </trkpt>
      <trkpt lat="44.60102" lon="0.89683">
        <ele>170.29</ele>
        <time>2015-01-11T10:42:02Z</time>
      </trkpt>
      <trkpt lat="44.60083" lon="0.89684">
        <ele>174.62</ele>
        <time>2015-01-11T10:42:08Z</time>
      </trkpt>
      <trkpt lat="44.60077" lon="0.89704">
        <ele>173.17</ele>
        <time>2015-01-11T10:42:13Z</time>
      </trkpt>
      <trkpt lat="44.60079" lon="0.89727">
        <ele>171.73</ele>
        <time>2015-01-11T10:42:18Z</time>
      </trkpt>
      <trkpt lat="44.60062" lon="0.8973">
        <ele>172.21</ele>
        <time>2015-01-11T10:42:26Z</time>
      </trkpt>
      <trkpt lat="44.60056" lon="0.89709">
        <ele>171.25</ele>
        <time>2015-01-11T10:42:31Z</time>
      </trkpt>
      <trkpt lat="44.60054" lon="0.89679">
        <ele>170.77</ele>
        <time>2015-01-11T10:42:39Z</time>
      </trkpt>
      <trkpt lat="44.60066" lon="0.89645">
        <ele>171.25</ele>
        <time>2015-01-11T10:42:45Z</time>
      </trkpt>
      <trkpt lat="44.60066" lon="0.89576">
        <ele>166.45</ele>
        <time>2015-01-11T10:42:55Z</time>
      </trkpt>
      <trkpt lat="44.60073" lon="0.89521">
        <ele>166.93</ele>
        <time>2015-01-11T10:43:05Z</time>
      </trkpt>
      <trkpt lat="44.6007" lon="0.89533">
        <ele>167.89</ele>
        <time>2015-01-11T10:43:12Z</time>
      </trkpt>
      <trkpt lat="44.60071" lon="0.89532">
        <ele>168.85</ele>
        <time>2015-01-11T10:43:22Z</time>
      </trkpt>
      <trkpt lat="44.60073" lon="0.89508">
        <ele>169.81</ele>
        <time>2015-01-11T10:43:30Z</time>
      </trkpt>
      <trkpt lat="44.60047" lon="0.89496">
        <ele>169.81</ele>
        <time>2015-01-11T10:43:40Z</time>
      </trkpt>
      <trkpt lat="44.60034" lon="0.89506">
        <ele>172.21</ele>
        <time>2015-01-11T10:43:50Z</time>
      </trkpt>
    </trkseg>
  </trk>
</gpx>